2016 Cux-Wetter.de -Die Nutzung der Wetterdaten nur mit ausdrcklicher Genehmigung
Wetterdaten: Samstag, 14.04.2018
Datum Zeit Temp. A. Feuchte A. Luftdruck Regen Wind Richtung Richtung Sonnenschein Solar Taupunkt Windchill Windben
14.04.2018 00:00 7,8 C 96 % 1008,6 hPa 0,0 l/m 1,5 km/h (1 Bft) N 5 0 min 0 W/m 7,2 C 7,8 C 4,8 km/h (1 Bft)
14.04.2018 00:03 7,8 C 96 % 1008,6 hPa 0,0 l/m 0,3 km/h (0 Bft) N 5 0 min 0 W/m 7,2 C 7,8 C 3,2 km/h (1 Bft)
14.04.2018 00:06 7,8 C 96 % 1008,7 hPa 0,0 l/m 2,5 km/h (1 Bft) N 9 0 min 0 W/m 7,2 C 7,8 C 6,4 km/h (2 Bft)
14.04.2018 00:09 7,7 C 96 % 1008,7 hPa 0,0 l/m 1,1 km/h (1 Bft) N 9 0 min 0 W/m 7,1 C 7,7 C 3,2 km/h (1 Bft)
14.04.2018 00:12 7,8 C 96 % 1008,6 hPa 0,0 l/m 0,8 km/h (0 Bft) N 9 0 min 0 W/m 7,2 C 7,8 C 3,2 km/h (1 Bft)
14.04.2018 00:15 7,8 C 96 % 1008,6 hPa 0,0 l/m 2,8 km/h (1 Bft) N 5 0 min 0 W/m 7,2 C 7,8 C 4,8 km/h (1 Bft)
14.04.2018 00:18 7,8 C 96 % 1008,7 hPa 0,0 l/m 1,7 km/h (1 Bft) N 5 0 min 0 W/m 7,2 C 7,8 C 3,2 km/h (1 Bft)
14.04.2018 00:21 7,7 C 96 % 1008,7 hPa 0,0 l/m 1,8 km/h (1 Bft) N 9 0 min 0 W/m 7,1 C 7,7 C 4,8 km/h (1 Bft)
14.04.2018 00:24 7,8 C 97 % 1008,6 hPa 0,0 l/m 3,9 km/h (1 Bft) N 350 0 min 0 W/m 7,4 C 7,8 C 8,0 km/h (2 Bft)
14.04.2018 00:27 7,8 C 97 % 1008,5 hPa 0,0 l/m 5,8 km/h (2 Bft) NW 319 0 min 0 W/m 7,4 C 7,8 C 9,7 km/h (2 Bft)
14.04.2018 00:30 7,8 C 96 % 1008,6 hPa 0,0 l/m 6,4 km/h (2 Bft) N-NW 331 0 min 0 W/m 7,2 C 7,8 C 14,5 km/h (3 Bft)
14.04.2018 00:33 7,8 C 96 % 1008,5 hPa 0,0 l/m 4,4 km/h (1 Bft) NW 311 0 min 0 W/m 7,2 C 7,8 C 8,0 km/h (2 Bft)
14.04.2018 00:36 7,7 C 96 % 1008,6 hPa 0,0 l/m 4,1 km/h (1 Bft) NW 313 0 min 0 W/m 7,1 C 7,7 C 9,7 km/h (2 Bft)
14.04.2018 00:39 7,7 C 97 % 1008,7 hPa 0,0 l/m 1,8 km/h (1 Bft) NW 313 0 min 0 W/m 7,3 C 7,7 C 4,8 km/h (1 Bft)
14.04.2018 00:42 7,7 C 97 % 1008,7 hPa 0,0 l/m 2,0 km/h (1 Bft) W-NW 286 0 min 0 W/m 7,3 C 7,7 C 9,7 km/h (2 Bft)
14.04.2018 00:45 7,7 C 97 % 1008,7 hPa 0,0 l/m 4,0 km/h (1 Bft) W-NW 293 0 min 0 W/m 7,3 C 7,7 C 6,4 km/h (2 Bft)
14.04.2018 00:48 7,7 C 97 % 1008,6 hPa 0,0 l/m 4,6 km/h (1 Bft) W-NW 299 0 min 0 W/m 7,3 C 7,7 C 6,4 km/h (2 Bft)
14.04.2018 00:51 7,7 C 97 % 1008,8 hPa 0,0 l/m 3,6 km/h (1 Bft) NW 317 0 min 0 W/m 7,3 C 7,7 C 8,0 km/h (2 Bft)
14.04.2018 00:54 7,7 C 97 % 1008,8 hPa 0,0 l/m 3,4 km/h (1 Bft) W 266 0 min 0 W/m 7,3 C 7,7 C 9,7 km/h (2 Bft)
14.04.2018 00:57 7,7 C 96 % 1008,9 hPa 0,0 l/m 2,7 km/h (1 Bft) W 266 0 min 0 W/m 7,1 C 7,7 C 4,8 km/h (1 Bft)
14.04.2018 01:00 7,7 C 96 % 1008,9 hPa 0,0 l/m 3,1 km/h (1 Bft) W 272 0 min 0 W/m 7,1 C 7,7 C 6,4 km/h (2 Bft)
14.04.2018 01:03 7,7 C 96 % 1008,8 hPa 0,0 l/m 1,7 km/h (1 Bft) W 272 0 min 0 W/m 7,1 C 7,7 C 4,8 km/h (1 Bft)
14.04.2018 01:06 7,7 C 97 % 1008,8 hPa 0,0 l/m 1,4 km/h (1 Bft) W 278 0 min 0 W/m 7,3 C 7,7 C 4,8 km/h (1 Bft)
14.04.2018 01:09 7,7 C 97 % 1008,9 hPa 0,0 l/m 1,8 km/h (1 Bft) W 278 0 min 0 W/m 7,3 C 7,7 C 4,8 km/h (1 Bft)
14.04.2018 01:12 7,7 C 97 % 1008,8 hPa 0,0 l/m 2,1 km/h (1 Bft) W 278 0 min 0 W/m 7,3 C 7,7 C 4,8 km/h (1 Bft)
14.04.2018 01:15 7,7 C 97 % 1008,8 hPa 0,0 l/m 2,3 km/h (1 Bft) W 278 0 min 0 W/m 7,3 C 7,7 C 4,8 km/h (1 Bft)
14.04.2018 01:18 7,7 C 97 % 1008,7 hPa 0,0 l/m 1,2 km/h (1 Bft) W 278 0 min 0 W/m 7,3 C 7,7 C 3,2 km/h (1 Bft)
14.04.2018 01:21 7,7 C 97 % 1008,8 hPa 0,0 l/m 2,0 km/h (1 Bft) W 278 0 min 0 W/m 7,3 C 7,7 C 4,8 km/h (1 Bft)
14.04.2018 01:24 7,7 C 97 % 1008,9 hPa 0,0 l/m 1,5 km/h (1 Bft) W 278 0 min 0 W/m 7,3 C 7,7 C 3,2 km/h (1 Bft)
14.04.2018 01:27 7,7 C 97 % 1009,0 hPa 0,0 l/m 1,2 km/h (1 Bft) W 278 0 min 0 W/m 7,3 C 7,7 C 4,8 km/h (1 Bft)
14.04.2018 01:30 7,7 C 97 % 1009,0 hPa 0,0 l/m 2,2 km/h (1 Bft) W 278 0 min 0 W/m 7,3 C 7,7 C 6,4 km/h (2 Bft)
14.04.2018 01:33 7,7 C 97 % 1009,0 hPa 0,0 l/m 3,8 km/h (1 Bft) W 277 0 min 0 W/m 7,3 C 7,7 C 6,4 km/h (2 Bft)
14.04.2018 01:36 7,7 C 97 % 1009,0 hPa 0,0 l/m 3,4 km/h (1 Bft) W 259 0 min 0 W/m 7,3 C 7,7 C 9,7 km/h (2 Bft)
14.04.2018 01:39 7,7 C 96 % 1009,1 hPa 0,0 l/m 5,4 km/h (2 Bft) W-SW 257 0 min 0 W/m 7,1 C 7,7 C 8,0 km/h (2 Bft)
14.04.2018 01:42 7,6 C 96 % 1009,1 hPa 0,0 l/m 3,5 km/h (1 Bft) W-SW 257 0 min 0 W/m 7,0 C 7,6 C 6,4 km/h (2 Bft)
14.04.2018 01:45 7,6 C 96 % 1009,2 hPa 0,0 l/m 4,8 km/h (1 Bft) W 265 0 min 0 W/m 7,0 C 7,6 C 11,3 km/h (2 Bft)
14.04.2018 01:48 7,6 C 96 % 1009,3 hPa 0,0 l/m 4,2 km/h (1 Bft) W-SW 252 0 min 0 W/m 7,0 C 7,6 C 6,4 km/h (2 Bft)
14.04.2018 01:51 7,6 C 97 % 1009,2 hPa 0,0 l/m 4,5 km/h (1 Bft) W-SW 253 0 min 0 W/m 7,2 C 7,6 C 8,0 km/h (2 Bft)
14.04.2018 01:54 7,6 C 97 % 1009,2 hPa 0,0 l/m 6,3 km/h (2 Bft) W 273 0 min 0 W/m 7,2 C 7,6 C 12,9 km/h (3 Bft)
14.04.2018 01:57 7,6 C 97 % 1009,2 hPa 0,0 l/m 5,4 km/h (2 Bft) W 266 0 min 0 W/m 7,2 C 7,6 C 11,3 km/h (2 Bft)
14.04.2018 02:00 7,7 C 97 % 1009,4 hPa 0,0 l/m 8,3 km/h (2 Bft) W-SW 245 0 min 0 W/m 7,3 C 6,2 C 14,5 km/h (3 Bft)
14.04.2018 02:03 7,6 C 97 % 1009,5 hPa 0,0 l/m 6,1 km/h (2 Bft) W-SW 250 0 min 0 W/m 7,2 C 7,6 C 12,9 km/h (3 Bft)
14.04.2018 02:06 7,6 C 96 % 1009,5 hPa 0,0 l/m 7,1 km/h (2 Bft) W 266 0 min 0 W/m 7,0 C 7,0 C 12,9 km/h (3 Bft)
14.04.2018 02:09 7,6 C 96 % 1009,5 hPa 0,0 l/m 6,5 km/h (2 Bft) W 272 0 min 0 W/m 7,0 C 7,5 C 12,9 km/h (3 Bft)
14.04.2018 02:12 7,6 C 97 % 1009,5 hPa 0,0 l/m 8,4 km/h (2 Bft) W 271 0 min 0 W/m 7,2 C 6,0 C 12,9 km/h (3 Bft)
14.04.2018 02:15 7,5 C 97 % 1009,5 hPa 0,0 l/m 8,1 km/h (2 Bft) W 269 0 min 0 W/m 7,1 C 6,2 C 19,3 km/h (3 Bft)
14.04.2018 02:18 7,4 C 97 % 1009,5 hPa 0,0 l/m 10,0 km/h (2 Bft) W-SW 246 0 min 0 W/m 7,0 C 4,7 C 20,9 km/h (4 Bft)
14.04.2018 02:21 7,4 C 97 % 1009,5 hPa 0,0 l/m 8,9 km/h (2 Bft) W 260 0 min 0 W/m 7,0 C 5,5 C 14,5 km/h (3 Bft)
14.04.2018 02:24 7,4 C 97 % 1009,5 hPa 0,0 l/m 9,8 km/h (2 Bft) W 271 0 min 0 W/m 7,0 C 4,9 C 19,3 km/h (3 Bft)
14.04.2018 02:27 7,4 C 97 % 1009,5 hPa 0,0 l/m 9,9 km/h (2 Bft) W-NW 291 0 min 0 W/m 7,0 C 4,8 C 17,7 km/h (3 Bft)
14.04.2018 02:30 7,3 C 97 % 1009,5 hPa 0,0 l/m 11,1 km/h (2 Bft) W-NW 292 0 min 0 W/m 6,9 C 3,9 C 17,7 km/h (3 Bft)
14.04.2018 02:33 7,4 C 97 % 1009,4 hPa 0,0 l/m 10,9 km/h (2 Bft) W-SW 250 0 min 0 W/m 7,0 C 4,2 C 17,7 km/h (3 Bft)
14.04.2018 02:36 7,4 C 97 % 1009,5 hPa 0,0 l/m 11,8 km/h (2 Bft) W 263 0 min 0 W/m 7,0 C 3,6 C 19,3 km/h (3 Bft)
14.04.2018 02:39 7,4 C 97 % 1009,5 hPa 0,0 l/m 8,2 km/h (2 Bft) W 277 0 min 0 W/m 7,0 C 6,0 C 17,7 km/h (3 Bft)
14.04.2018 02:42 7,4 C 97 % 1009,5 hPa 0,0 l/m 9,8 km/h (2 Bft) NW 306 0 min 0 W/m 7,0 C 4,9 C 19,3 km/h (3 Bft)
14.04.2018 02:45 7,4 C 97 % 1009,5 hPa 0,0 l/m 11,3 km/h (2 Bft) W 269 0 min 0 W/m 7,0 C 3,9 C 17,7 km/h (3 Bft)
14.04.2018 02:48 7,4 C 97 % 1009,5 hPa 0,0 l/m 12,7 km/h (3 Bft) W 281 0 min 0 W/m 7,0 C 3,1 C 17,7 km/h (3 Bft)
14.04.2018 02:51 7,3 C 97 % 1009,6 hPa 0,0 l/m 9,0 km/h (2 Bft) W 275 0 min 0 W/m 6,9 C 5,3 C 17,7 km/h (3 Bft)
14.04.2018 02:54 7,3 C 97 % 1009,7 hPa 0,0 l/m 10,5 km/h (2 Bft) SW 232 0 min 0 W/m 6,9 C 4,3 C 17,7 km/h (3 Bft)
14.04.2018 02:57 7,3 C 97 % 1009,8 hPa 0,0 l/m 8,1 km/h (2 Bft) W-SW 242 0 min 0 W/m 6,9 C 5,9 C 19,3 km/h (3 Bft)
14.04.2018 03:00 7,3 C 97 % 1009,8 hPa 0,0 l/m 9,7 km/h (2 Bft) W-SW 250 0 min 0 W/m 6,9 C 4,8 C 19,3 km/h (3 Bft)
14.04.2018 03:03 7,3 C 97 % 1009,7 hPa 0,0 l/m 10,0 km/h (2 Bft) W-NW 284 0 min 0 W/m 6,9 C 4,6 C 19,3 km/h (3 Bft)
14.04.2018 03:06 7,2 C 97 % 1009,8 hPa 0,0 l/m 10,0 km/h (2 Bft) W 259 0 min 0 W/m 6,8 C 4,5 C 16,1 km/h (3 Bft)
14.04.2018 03:09 7,2 C 97 % 1009,8 hPa 0,0 l/m 8,7 km/h (2 Bft) W-NW 296 0 min 0 W/m 6,8 C 5,4 C 19,3 km/h (3 Bft)
14.04.2018 03:12 7,2 C 97 % 1009,8 hPa 0,0 l/m 9,1 km/h (2 Bft) W-SW 250 0 min 0 W/m 6,8 C 5,1 C 17,7 km/h (3 Bft)
14.04.2018 03:15 7,2 C 97 % 1009,8 hPa 0,0 l/m 10,1 km/h (2 Bft) W 269 0 min 0 W/m 6,8 C 4,4 C 20,9 km/h (4 Bft)
14.04.2018 03:18 7,2 C 97 % 1009,8 hPa 0,0 l/m 10,9 km/h (2 Bft) W 266 0 min 0 W/m 6,8 C 3,9 C 17,7 km/h (3 Bft)
14.04.2018 03:21 7,2 C 97 % 1009,8 hPa 0,0 l/m 12,6 km/h (3 Bft) W 260 0 min 0 W/m 6,8 C 3,0 C 19,3 km/h (3 Bft)
14.04.2018 03:24 7,2 C 97 % 1009,8 hPa 0,0 l/m 8,9 km/h (2 Bft) W-NW 290 0 min 0 W/m 6,8 C 5,2 C 16,1 km/h (3 Bft)
14.04.2018 03:27 7,2 C 97 % 1009,7 hPa 0,0 l/m 9,7 km/h (2 Bft) SW 236 0 min 0 W/m 6,8 C 4,7 C 19,3 km/h (3 Bft)
14.04.2018 03:30 7,1 C 97 % 1009,7 hPa 0,0 l/m 10,4 km/h (2 Bft) W-SW 238 0 min 0 W/m 6,7 C 4,1 C 17,7 km/h (3 Bft)
14.04.2018 03:33 7,1 C 97 % 1009,7 hPa 0,0 l/m 11,6 km/h (2 Bft) W 262 0 min 0 W/m 6,7 C 3,4 C 20,9 km/h (4 Bft)
14.04.2018 03:36 7,1 C 97 % 1009,7 hPa 0,0 l/m 10,9 km/h (2 Bft) W-SW 248 0 min 0 W/m 6,7 C 3,8 C 22,5 km/h (4 Bft)
14.04.2018 03:39 7,0 C 97 % 1009,7 hPa 0,0 l/m 11,2 km/h (2 Bft) W-SW 238 0 min 0 W/m 6,6 C 3,5 C 20,9 km/h (4 Bft)
14.04.2018 03:42 7,0 C 97 % 1009,7 hPa 0,0 l/m 8,8 km/h (2 Bft) W 275 0 min 0 W/m 6,6 C 5,1 C 20,9 km/h (4 Bft)
14.04.2018 03:45 7,0 C 97 % 1009,7 hPa 0,0 l/m 8,5 km/h (2 Bft) W 264 0 min 0 W/m 6,6 C 5,3 C 16,1 km/h (3 Bft)
14.04.2018 03:48 7,1 C 97 % 1009,7 hPa 0,0 l/m 10,0 km/h (2 Bft) W 259 0 min 0 W/m 6,7 C 4,4 C 19,3 km/h (3 Bft)
14.04.2018 03:51 7,1 C 97 % 1009,8 hPa 0,0 l/m 12,2 km/h (2 Bft) W 265 0 min 0 W/m 6,7 C 3,1 C 20,9 km/h (4 Bft)
14.04.2018 03:54 7,1 C 97 % 1009,8 hPa 0,0 l/m 11,2 km/h (2 Bft) W-SW 257 0 min 0 W/m 6,7 C 3,6 C 19,3 km/h (3 Bft)
14.04.2018 03:57 7,1 C 97 % 1009,7 hPa 0,0 l/m 12,5 km/h (2 Bft) W 273 0 min 0 W/m 6,7 C 2,9 C 22,5 km/h (4 Bft)
14.04.2018 04:00 7,1 C 97 % 1009,7 hPa 0,0 l/m 13,0 km/h (3 Bft) W 279 0 min 0 W/m 6,7 C 2,6 C 24,1 km/h (4 Bft)
14.04.2018 04:03 7,1 C 97 % 1009,7 hPa 0,0 l/m 14,1 km/h (3 Bft) W 263 0 min 0 W/m 6,7 C 2,1 C 22,5 km/h (4 Bft)
14.04.2018 04:06 7,1 C 97 % 1009,8 hPa 0,0 l/m 12,4 km/h (2 Bft) SW 232 0 min 0 W/m 6,7 C 3,0 C 20,9 km/h (4 Bft)
14.04.2018 04:09 7,1 C 97 % 1009,7 hPa 0,0 l/m 13,9 km/h (3 Bft) W 267 0 min 0 W/m 6,7 C 2,2 C 24,1 km/h (4 Bft)
14.04.2018 04:12 7,1 C 97 % 1009,7 hPa 0,0 l/m 12,7 km/h (3 Bft) W-NW 290 0 min 0 W/m 6,7 C 2,8 C 22,5 km/h (4 Bft)
14.04.2018 04:15 7,1 C 97 % 1009,7 hPa 0,0 l/m 14,3 km/h (3 Bft) W 273 0 min 0 W/m 6,7 C 2,0 C 22,5 km/h (4 Bft)
14.04.2018 04:18 7,0 C 97 % 1009,8 hPa 0,0 l/m 15,0 km/h (3 Bft) W 273 0 min 0 W/m 6,6 C 1,5 C 25,7 km/h (4 Bft)
14.04.2018 04:21 7,0 C 97 % 1009,8 hPa 0,0 l/m 13,3 km/h (3 Bft) W-SW 250 0 min 0 W/m 6,6 C 2,3 C 22,5 km/h (4 Bft)
14.04.2018 04:24 7,0 C 97 % 1009,8 hPa 0,0 l/m 12,0 km/h (2 Bft) W 272 0 min 0 W/m 6,6 C 3,1 C 22,5 km/h (4 Bft)
14.04.2018 04:27 7,0 C 97 % 1009,8 hPa 0,0 l/m 14,3 km/h (3 Bft) W 269 0 min 0 W/m 6,6 C 1,8 C 22,5 km/h (4 Bft)
14.04.2018 04:30 7,0 C 97 % 1009,7 hPa 0,0 l/m 14,3 km/h (3 Bft) S-SW 213 0 min 0 W/m 6,6 C 1,8 C 25,7 km/h (4 Bft)
14.04.2018 04:33 7,0 C 97 % 1009,7 hPa 0,0 l/m 14,9 km/h (3 Bft) W-SW 251 0 min 0 W/m 6,6 C 1,5 C 27,4 km/h (5 Bft)
14.04.2018 04:36 7,0 C 97 % 1009,7 hPa 0,0 l/m 13,6 km/h (3 Bft) W-NW 294 0 min 0 W/m 6,6 C 2,2 C 19,3 km/h (3 Bft)
14.04.2018 04:39 7,1 C 97 % 1009,6 hPa 0,0 l/m 14,2 km/h (3 Bft) SW 231 0 min 0 W/m 6,7 C 2,0 C 22,5 km/h (4 Bft)
14.04.2018 04:42 7,0 C 97 % 1009,6 hPa 0,0 l/m 15,7 km/h (3 Bft) W 269 0 min 0 W/m 6,6 C 1,2 C 25,7 km/h (4 Bft)
14.04.2018 04:45 7,0 C 97 % 1009,5 hPa 0,0 l/m 14,4 km/h (3 Bft) W 271 0 min 0 W/m 6,6 C 1,8 C 30,6 km/h (5 Bft)
14.04.2018 04:48 7,0 C 97 % 1009,7 hPa 0,0 l/m 18,4 km/h (3 Bft) W-SW 252 0 min 0 W/m 6,6 C 0,0 C 25,7 km/h (4 Bft)
14.04.2018 04:51 7,0 C 97 % 1009,8 hPa 0,0 l/m 14,4 km/h (3 Bft) W 265 0 min 0 W/m 6,6 C 1,8 C 20,9 km/h (4 Bft)
14.04.2018 04:54 7,0 C 97 % 1009,8 hPa 0,0 l/m 12,6 km/h (3 Bft) W 261 0 min 0 W/m 6,6 C 2,7 C 25,7 km/h (4 Bft)
14.04.2018 04:57 7,1 C 97 % 1009,9 hPa 0,0 l/m 15,2 km/h (3 Bft) W-SW 248 0 min 0 W/m 6,7 C 1,5 C 25,7 km/h (4 Bft)
14.04.2018 05:00 7,1 C 97 % 1009,9 hPa 0,0 l/m 15,0 km/h (3 Bft) SW 227 0 min 0 W/m 6,7 C 1,6 C 20,9 km/h (4 Bft)
14.04.2018 05:03 7,1 C 97 % 1009,9 hPa 0,0 l/m 14,5 km/h (3 Bft) W-SW 239 0 min 0 W/m 6,7 C 1,9 C 24,1 km/h (4 Bft)
14.04.2018 05:06 7,1 C 97 % 1010,0 hPa 0,0 l/m 14,6 km/h (3 Bft) W-SW 252 0 min 0 W/m 6,7 C 1,8 C 25,7 km/h (4 Bft)
14.04.2018 05:09 7,2 C 97 % 1010,0 hPa 0,0 l/m 13,9 km/h (3 Bft) W-SW 237 0 min 0 W/m 6,8 C 2,3 C 25,7 km/h (4 Bft)
14.04.2018 05:12 7,2 C 97 % 1010,1 hPa 0,0 l/m 11,3 km/h (2 Bft) SW 236 0 min 0 W/m 6,8 C 3,7 C 20,9 km/h (4 Bft)
14.04.2018 05:15 7,2 C 97 % 1010,1 hPa 0,0 l/m 10,7 km/h (2 Bft) W 269 0 min 0 W/m 6,8 C 4,1 C 22,5 km/h (4 Bft)
14.04.2018 05:18 7,2 C 97 % 1010,1 hPa 0,0 l/m 10,9 km/h (2 Bft) W 276 0 min 0 W/m 6,8 C 3,9 C 22,5 km/h (4 Bft)
14.04.2018 05:21 7,2 C 97 % 1010,0 hPa 0,0 l/m 15,3 km/h (3 Bft) W 274 0 min 0 W/m 6,8 C 1,6 C 27,4 km/h (5 Bft)
14.04.2018 05:24 7,2 C 97 % 1010,0 hPa 0,0 l/m 13,2 km/h (3 Bft) W-SW 254 0 min 0 W/m 6,8 C 2,6 C 22,5 km/h (4 Bft)
14.04.2018 05:27 7,2 C 97 % 1010,0 hPa 0,0 l/m 13,3 km/h (3 Bft) W 263 0 min 0 W/m 6,8 C 2,6 C 22,5 km/h (4 Bft)
14.04.2018 05:30 7,2 C 97 % 1010,0 hPa 0,0 l/m 15,1 km/h (3 Bft) SW 232 0 min 0 W/m 6,8 C 1,7 C 24,1 km/h (4 Bft)
14.04.2018 05:33 7,2 C 97 % 1010,0 hPa 0,0 l/m 10,3 km/h (2 Bft) W-SW 254 0 min 0 W/m 6,8 C 4,3 C 16,1 km/h (3 Bft)
14.04.2018 05:36 7,1 C 97 % 1010,0 hPa 0,0 l/m 14,9 km/h (3 Bft) W 263 0 min 0 W/m 6,7 C 1,7 C 27,4 km/h (5 Bft)
14.04.2018 05:39 7,1 C 97 % 1010,0 hPa 0,0 l/m 14,1 km/h (3 Bft) SW 234 0 min 0 W/m 6,7 C 2,1 C 22,5 km/h (4 Bft)
14.04.2018 05:42 7,1 C 97 % 1010,1 hPa 0,0 l/m 13,7 km/h (3 Bft) W-SW 240 0 min 0 W/m 6,7 C 2,3 C 22,5 km/h (4 Bft)
14.04.2018 05:45 7,1 C 97 % 1010,1 hPa 0,0 l/m 13,9 km/h (3 Bft) W 280 0 min 0 W/m 6,7 C 2,2 C 20,9 km/h (4 Bft)
14.04.2018 05:48 7,1 C 97 % 1010,1 hPa 0,0 l/m 12,5 km/h (2 Bft) W-SW 244 0 min 0 W/m 6,7 C 2,9 C 22,5 km/h (4 Bft)
14.04.2018 05:51 7,1 C 97 % 1010,1 hPa 0,0 l/m 12,2 km/h (2 Bft) W-SW 242 0 min 0 W/m 6,7 C 3,1 C 22,5 km/h (4 Bft)
14.04.2018 05:54 7,1 C 97 % 1010,1 hPa 0,0 l/m 13,7 km/h (3 Bft) W 265 0 min 0 W/m 6,7 C 2,3 C 27,4 km/h (5 Bft)
14.04.2018 05:57 7,1 C 97 % 1010,1 hPa 0,0 l/m 12,7 km/h (3 Bft) W-NW 292 0 min 0 W/m 6,7 C 2,8 C 17,7 km/h (3 Bft)
14.04.2018 06:00 7,1 C 97 % 1010,2 hPa 0,0 l/m 13,6 km/h (3 Bft) W-NW 290 0 min 0 W/m 6,7 C 2,3 C 19,3 km/h (3 Bft)
14.04.2018 06:03 7,1 C 97 % 1010,2 hPa 0,0 l/m 10,9 km/h (2 Bft) SW 223 0 min 0 W/m 6,7 C 3,8 C 17,7 km/h (3 Bft)
14.04.2018 06:06 7,1 C 97 % 1010,2 hPa 0,0 l/m 15,0 km/h (3 Bft) W 263 0 min 0 W/m 6,7 C 1,6 C 22,5 km/h (4 Bft)
14.04.2018 06:09 7,1 C 97 % 1010,3 hPa 0,0 l/m 11,9 km/h (2 Bft) W-SW 257 0 min 0 W/m 6,7 C 3,2 C 17,7 km/h (3 Bft)
14.04.2018 06:12 7,1 C 97 % 1010,3 hPa 0,0 l/m 11,3 km/h (2 Bft) W-SW 254 0 min 0 W/m 6,7 C 3,6 C 22,5 km/h (4 Bft)
14.04.2018 06:15 7,1 C 97 % 1010,3 hPa 0,0 l/m 13,1 km/h (3 Bft) W-SW 247 0 min 0 W/m 6,7 C 2,6 C 17,7 km/h (3 Bft)
14.04.2018 06:18 7,1 C 97 % 1010,4 hPa 0,0 l/m 12,1 km/h (2 Bft) SW 226 0 min 0 W/m 6,7 C 3,1 C 19,3 km/h (3 Bft)
14.04.2018 06:21 7,0 C 97 % 1010,4 hPa 0,0 l/m 13,4 km/h (3 Bft) W-NW 282 0 min 0 W/m 6,6 C 2,3 C 20,9 km/h (4 Bft)
14.04.2018 06:24 7,1 C 97 % 1010,4 hPa 0,0 l/m 15,0 km/h (3 Bft) W-SW 252 0 min 0 W/m 6,7 C 1,6 C 27,4 km/h (5 Bft)
14.04.2018 06:27 7,1 C 97 % 1010,6 hPa 0,0 l/m 11,2 km/h (2 Bft) S-SW 200 0 min 0 W/m 6,7 C 3,6 C 17,7 km/h (3 Bft)
14.04.2018 06:30 7,1 C 97 % 1010,6 hPa 0,0 l/m 12,0 km/h (2 Bft) SW 232 0 min 0 W/m 6,7 C 3,2 C 20,9 km/h (4 Bft)
14.04.2018 06:33 7,1 C 97 % 1010,7 hPa 0,2 l/m 15,1 km/h (3 Bft) W 265 0 min 0 W/m 6,7 C 1,6 C 25,7 km/h (4 Bft)
14.04.2018 06:36 7,1 C 97 % 1010,7 hPa 0,0 l/m 13,2 km/h (3 Bft) SW 233 0 min 0 W/m 6,7 C 2,5 C 25,7 km/h (4 Bft)
14.04.2018 06:39 7,1 C 97 % 1010,7 hPa 0,0 l/m 14,1 km/h (3 Bft) W 259 0 min 0 W/m 6,7 C 2,1 C 25,7 km/h (4 Bft)
14.04.2018 06:42 7,1 C 97 % 1010,6 hPa 0,0 l/m 12,8 km/h (3 Bft) W 277 0 min 0 W/m 6,7 C 2,7 C 20,9 km/h (4 Bft)
14.04.2018 06:45 7,1 C 97 % 1010,6 hPa 0,0 l/m 12,8 km/h (3 Bft) W-SW 249 0 min 0 W/m 6,7 C 2,7 C 20,9 km/h (4 Bft)
14.04.2018 06:48 7,1 C 97 % 1010,6 hPa 0,0 l/m 16,1 km/h (3 Bft) W-NW 283 0 min 0 W/m 6,7 C 1,1 C 24,1 km/h (4 Bft)
14.04.2018 06:51 7,1 C 97 % 1010,5 hPa 0,0 l/m 15,1 km/h (3 Bft) W 265 0 min 5 W/m 6,7 C 1,6 C 20,9 km/h (4 Bft)
14.04.2018 06:54 7,1 C 97 % 1010,6 hPa 0,0 l/m 15,2 km/h (3 Bft) SW 234 0 min 5 W/m 6,7 C 1,5 C 25,7 km/h (4 Bft)
14.04.2018 06:57 7,1 C 97 % 1010,6 hPa 0,0 l/m 12,0 km/h (2 Bft) SW 231 0 min 5 W/m 6,7 C 3,2 C 24,1 km/h (4 Bft)
14.04.2018 07:00 7,1 C 97 % 1010,6 hPa 0,0 l/m 11,6 km/h (2 Bft) W-SW 255 0 min 5 W/m 6,7 C 3,4 C 19,3 km/h (3 Bft)
14.04.2018 07:03 7,1 C 97 % 1010,7 hPa 0,0 l/m 14,3 km/h (3 Bft) W 271 0 min 5 W/m 6,7 C 2,0 C 20,9 km/h (4 Bft)
14.04.2018 07:06 7,1 C 97 % 1010,8 hPa 0,0 l/m 12,2 km/h (2 Bft) W-SW 245 0 min 5 W/m 6,7 C 3,1 C 22,5 km/h (4 Bft)
14.04.2018 07:09 7,1 C 97 % 1010,9 hPa 0,0 l/m 12,1 km/h (2 Bft) W-SW 256 0 min 5 W/m 6,7 C 3,1 C 22,5 km/h (4 Bft)
14.04.2018 07:12 7,1 C 97 % 1011,0 hPa 0,0 l/m 10,4 km/h (2 Bft) W 259 0 min 0 W/m 6,7 C 4,1 C 17,7 km/h (3 Bft)
14.04.2018 07:15 7,1 C 97 % 1011,0 hPa 0,0 l/m 10,7 km/h (2 Bft) W 279 0 min 5 W/m 6,7 C 3,9 C 17,7 km/h (3 Bft)
14.04.2018 07:18 7,1 C 97 % 1011,0 hPa 0,0 l/m 15,8 km/h (3 Bft) W-SW 249 0 min 5 W/m 6,7 C 1,3 C 24,1 km/h (4 Bft)
14.04.2018 07:21 7,0 C 97 % 1011,0 hPa 0,0 l/m 12,0 km/h (2 Bft) W 261 0 min 5 W/m 6,6 C 3,1 C 27,4 km/h (5 Bft)
14.04.2018 07:24 7,0 C 97 % 1011,0 hPa 0,2 l/m 15,3 km/h (3 Bft) W-SW 246 0 min 5 W/m 6,6 C 1,4 C 24,1 km/h (4 Bft)
14.04.2018 07:27 7,0 C 97 % 1011,0 hPa 0,0 l/m 14,1 km/h (3 Bft) W-SW 243 0 min 5 W/m 6,6 C 1,9 C 24,1 km/h (4 Bft)
14.04.2018 07:30 7,0 C 97 % 1011,0 hPa 0,0 l/m 11,7 km/h (2 Bft) W 269 0 min 5 W/m 6,6 C 3,2 C 16,1 km/h (3 Bft)
14.04.2018 07:33 7,0 C 97 % 1011,1 hPa 0,0 l/m 14,1 km/h (3 Bft) W-SW 254 0 min 7 W/m 6,6 C 1,9 C 22,5 km/h (4 Bft)
14.04.2018 07:36 7,0 C 97 % 1011,2 hPa 0,0 l/m 15,4 km/h (3 Bft) W 265 0 min 7 W/m 6,6 C 1,3 C 25,7 km/h (4 Bft)
14.04.2018 07:39 6,9 C 97 % 1011,1 hPa 0,0 l/m 15,2 km/h (3 Bft) W-SW 256 0 min 7 W/m 6,5 C 1,3 C 25,7 km/h (4 Bft)
14.04.2018 07:42 7,0 C 97 % 1011,2 hPa 0,0 l/m 11,9 km/h (2 Bft) W-SW 242 0 min 7 W/m 6,6 C 3,1 C 19,3 km/h (3 Bft)
14.04.2018 07:45 7,0 C 97 % 1011,2 hPa 0,0 l/m 14,1 km/h (3 Bft) W-SW 250 0 min 7 W/m 6,6 C 1,9 C 24,1 km/h (4 Bft)
14.04.2018 07:48 6,9 C 97 % 1011,2 hPa 0,0 l/m 12,4 km/h (2 Bft) W 281 0 min 9 W/m 6,5 C 2,7 C 20,9 km/h (4 Bft)
14.04.2018 07:51 7,0 C 97 % 1011,3 hPa 0,0 l/m 13,3 km/h (3 Bft) W-SW 242 0 min 7 W/m 6,6 C 2,3 C 22,5 km/h (4 Bft)
14.04.2018 07:54 7,0 C 97 % 1011,2 hPa 0,0 l/m 11,6 km/h (2 Bft) W-SW 247 0 min 12 W/m 6,6 C 3,3 C 27,4 km/h (5 Bft)
14.04.2018 07:57 7,0 C 97 % 1011,2 hPa 0,0 l/m 13,2 km/h (3 Bft) W 275 0 min 14 W/m 6,6 C 2,4 C 25,7 km/h (4 Bft)
14.04.2018 08:00 6,9 C 97 % 1011,2 hPa 0,0 l/m 11,7 km/h (2 Bft) S-SW 209 0 min 11 W/m 6,5 C 3,1 C 19,3 km/h (3 Bft)
14.04.2018 08:03 7,0 C 97 % 1011,3 hPa 0,0 l/m 12,5 km/h (2 Bft) SW 236 0 min 9 W/m 6,6 C 2,8 C 24,1 km/h (4 Bft)
14.04.2018 08:06 6,9 C 97 % 1011,3 hPa 0,0 l/m 14,6 km/h (3 Bft) W-SW 248 0 min 12 W/m 6,5 C 1,6 C 24,1 km/h (4 Bft)
14.04.2018 08:09 7,0 C 98 % 1011,2 hPa 0,0 l/m 13,6 km/h (3 Bft) SW 234 0 min 11 W/m 6,7 C 2,2 C 24,1 km/h (4 Bft)
14.04.2018 08:12 6,9 C 97 % 1011,2 hPa 0,0 l/m 13,6 km/h (3 Bft) SW 236 0 min 11 W/m 6,5 C 2,1 C 24,1 km/h (4 Bft)
14.04.2018 08:15 6,9 C 97 % 1011,2 hPa 0,0 l/m 15,5 km/h (3 Bft) W 261 0 min 11 W/m 6,5 C 1,1 C 27,4 km/h (5 Bft)
14.04.2018 08:18 6,9 C 98 % 1011,2 hPa 0,0 l/m 15,1 km/h (3 Bft) W-NW 286 0 min 11 W/m 6,6 C 1,3 C 27,4 km/h (5 Bft)
14.04.2018 08:21 6,9 C 98 % 1011,2 hPa 0,0 l/m 15,5 km/h (3 Bft) W 281 0 min 11 W/m 6,6 C 1,1 C 25,7 km/h (4 Bft)
14.04.2018 08:24 6,9 C 98 % 1011,3 hPa 0,0 l/m 15,5 km/h (3 Bft) W-NW 289 0 min 11 W/m 6,6 C 1,1 C 25,7 km/h (4 Bft)
14.04.2018 08:27 6,9 C 98 % 1011,2 hPa 0,0 l/m 16,3 km/h (3 Bft) W-NW 284 0 min 12 W/m 6,6 C 0,8 C 30,6 km/h (5 Bft)
14.04.2018 08:30 6,9 C 98 % 1011,3 hPa 0,0 l/m 14,4 km/h (3 Bft) W-SW 257 0 min 12 W/m 6,6 C 1,7 C 32,2 km/h (5 Bft)
14.04.2018 08:33 7,0 C 98 % 1011,4 hPa 0,0 l/m 16,8 km/h (3 Bft) W-SW 250 0 min 11 W/m 6,7 C 0,7 C 29,0 km/h (5 Bft)
14.04.2018 08:36 7,0 C 98 % 1011,4 hPa 0,0 l/m 15,4 km/h (3 Bft) W 259 0 min 14 W/m 6,7 C 1,3 C 25,7 km/h (4 Bft)
14.04.2018 08:39 7,0 C 98 % 1011,4 hPa 0,0 l/m 12,2 km/h (2 Bft) SW 227 0 min 16 W/m 6,7 C 2,9 C 19,3 km/h (3 Bft)
14.04.2018 08:42 7,1 C 98 % 1011,4 hPa 0,0 l/m 17,2 km/h (3 Bft) W 262 0 min 14 W/m 6,8 C 0,6 C 29,0 km/h (5 Bft)
14.04.2018 08:45 7,1 C 98 % 1011,4 hPa 0,0 l/m 16,0 km/h (3 Bft) SW 226 0 min 18 W/m 6,8 C 1,2 C 27,4 km/h (5 Bft)
14.04.2018 08:48 7,1 C 97 % 1011,4 hPa 0,0 l/m 18,0 km/h (3 Bft) W-SW 238 0 min 25 W/m 6,7 C 0,3 C 25,7 km/h (4 Bft)
14.04.2018 08:51 7,1 C 97 % 1011,4 hPa 0,0 l/m 17,8 km/h (3 Bft) SW 229 0 min 26 W/m 6,7 C 0,4 C 33,8 km/h (5 Bft)
14.04.2018 08:54 7,1 C 97 % 1011,4 hPa 0,0 l/m 16,4 km/h (3 Bft) S-SW 213 0 min 26 W/m 6,7 C 1,0 C 30,6 km/h (5 Bft)
14.04.2018 08:57 7,1 C 97 % 1011,5 hPa 0,2 l/m 13,4 km/h (3 Bft) SW 227 0 min 25 W/m 6,7 C 2,4 C 29,0 km/h (5 Bft)
14.04.2018 09:00 7,1 C 97 % 1011,5 hPa 0,0 l/m 19,7 km/h (3 Bft) W 259 0 min 25 W/m 6,7 C -0,3 C 29,0 km/h (5 Bft)
14.04.2018 09:03 7,1 C 97 % 1011,6 hPa 0,0 l/m 16,4 km/h (3 Bft) W 261 0 min 21 W/m 6,7 C 1,0 C 27,4 km/h (5 Bft)
14.04.2018 09:06 7,1 C 97 % 1011,6 hPa 0,0 l/m 14,6 km/h (3 Bft) W 263 0 min 25 W/m 6,7 C 1,8 C 25,7 km/h (4 Bft)
14.04.2018 09:09 7,1 C 97 % 1011,8 hPa 0,0 l/m 16,7 km/h (3 Bft) W 275 0 min 18 W/m 6,7 C 0,9 C 30,6 km/h (5 Bft)
14.04.2018 09:12 7,2 C 97 % 1011,8 hPa 0,0 l/m 18,3 km/h (3 Bft) W-NW 301 0 min 16 W/m 6,8 C 0,3 C 27,4 km/h (5 Bft)
14.04.2018 09:15 7,2 C 97 % 1011,8 hPa 0,0 l/m 15,1 km/h (3 Bft) W-SW 242 0 min 14 W/m 6,8 C 1,7 C 27,4 km/h (5 Bft)
14.04.2018 09:18 7,2 C 97 % 1011,9 hPa 0,0 l/m 13,9 km/h (3 Bft) W 269 0 min 14 W/m 6,8 C 2,3 C 30,6 km/h (5 Bft)
14.04.2018 09:21 7,2 C 97 % 1011,9 hPa 0,0 l/m 15,8 km/h (3 Bft) SW 234 0 min 12 W/m 6,8 C 1,4 C 27,4 km/h (5 Bft)
14.04.2018 09:24 7,2 C 97 % 1011,9 hPa 0,0 l/m 15,7 km/h (3 Bft) W-SW 241 0 min 14 W/m 6,8 C 1,4 C 29,0 km/h (5 Bft)
14.04.2018 09:27 7,2 C 97 % 1011,9 hPa 0,0 l/m 14,0 km/h (3 Bft) W-NW 284 0 min 18 W/m 6,8 C 2,2 C 20,9 km/h (4 Bft)
14.04.2018 09:30 7,2 C 97 % 1012,0 hPa 0,0 l/m 16,4 km/h (3 Bft) W 275 0 min 14 W/m 6,8 C 1,1 C 29,0 km/h (5 Bft)
14.04.2018 09:33 7,1 C 97 % 1012,0 hPa 0,0 l/m 16,1 km/h (3 Bft) W-SW 247 0 min 16 W/m 6,7 C 1,1 C 24,1 km/h (4 Bft)
14.04.2018 09:36 7,1 C 97 % 1012,0 hPa 0,0 l/m 13,9 km/h (3 Bft) W-SW 247 0 min 18 W/m 6,7 C 2,2 C 24,1 km/h (4 Bft)
14.04.2018 09:39 7,1 C 97 % 1012,0 hPa 0,0 l/m 16,1 km/h (3 Bft) W 279 0 min 21 W/m 6,7 C 1,1 C 27,4 km/h (5 Bft)
14.04.2018 09:42 7,1 C 97 % 1012,1 hPa 0,0 l/m 14,6 km/h (3 Bft) W 259 0 min 16 W/m 6,7 C 1,8 C 22,5 km/h (4 Bft)
14.04.2018 09:45 7,1 C 97 % 1012,0 hPa 0,0 l/m 13,4 km/h (3 Bft) W-SW 241 0 min 23 W/m 6,7 C 2,4 C 25,7 km/h (4 Bft)
14.04.2018 09:48 7,1 C 97 % 1012,1 hPa 0,0 l/m 14,1 km/h (3 Bft) W-SW 242 0 min 28 W/m 6,7 C 2,1 C 25,7 km/h (4 Bft)
14.04.2018 09:51 7,1 C 97 % 1012,1 hPa 0,0 l/m 15,2 km/h (3 Bft) W-SW 250 0 min 25 W/m 6,7 C 1,5 C 25,7 km/h (4 Bft)
14.04.2018 09:54 7,2 C 97 % 1012,2 hPa 0,0 l/m 15,0 km/h (3 Bft) W-NW 292 0 min 28 W/m 6,8 C 1,7 C 25,7 km/h (4 Bft)
14.04.2018 09:57 7,2 C 97 % 1012,2 hPa 0,0 l/m 17,7 km/h (3 Bft) W 266 0 min 25 W/m 6,8 C 0,6 C 29,0 km/h (5 Bft)
14.04.2018 10:00 7,2 C 97 % 1012,3 hPa 0,0 l/m 14,4 km/h (3 Bft) W-NW 286 0 min 28 W/m 6,8 C 2,0 C 25,7 km/h (4 Bft)
14.04.2018 10:03 7,2 C 97 % 1012,3 hPa 0,0 l/m 17,4 km/h (3 Bft) SW 232 0 min 26 W/m 6,8 C 0,7 C 27,4 km/h (5 Bft)
14.04.2018 10:06 7,1 C 97 % 1012,4 hPa 0,0 l/m 14,9 km/h (3 Bft) SW 229 0 min 23 W/m 6,7 C 1,7 C 22,5 km/h (4 Bft)
14.04.2018 10:09 7,1 C 97 % 1012,5 hPa 0,0 l/m 15,5 km/h (3 Bft) SW 222 0 min 26 W/m 6,7 C 1,4 C 24,1 km/h (4 Bft)
14.04.2018 10:12 7,1 C 97 % 1012,6 hPa 0,0 l/m 16,4 km/h (3 Bft) W 277 0 min 23 W/m 6,7 C 1,0 C 25,7 km/h (4 Bft)
14.04.2018 10:15 7,1 C 97 % 1012,7 hPa 0,0 l/m 15,2 km/h (3 Bft) W 267 0 min 21 W/m 6,7 C 1,5 C 29,0 km/h (5 Bft)
14.04.2018 10:18 7,1 C 97 % 1012,7 hPa 0,0 l/m 16,5 km/h (3 Bft) W 270 0 min 19 W/m 6,7 C 0,9 C 27,4 km/h (5 Bft)
14.04.2018 10:21 7,1 C 97 % 1012,7 hPa 0,0 l/m 15,2 km/h (3 Bft) W-SW 241 0 min 18 W/m 6,7 C 1,5 C 25,7 km/h (4 Bft)
14.04.2018 10:24 7,1 C 97 % 1012,8 hPa 0,0 l/m 15,7 km/h (3 Bft) W 262 0 min 19 W/m 6,7 C 1,3 C 22,5 km/h (4 Bft)
14.04.2018 10:27 7,1 C 97 % 1012,8 hPa 0,0 l/m 15,6 km/h (3 Bft) W 266 0 min 23 W/m 6,7 C 1,3 C 27,4 km/h (5 Bft)
14.04.2018 10:30 7,1 C 97 % 1012,8 hPa 0,0 l/m 15,1 km/h (3 Bft) W 263 0 min 23 W/m 6,7 C 1,6 C 25,7 km/h (4 Bft)
14.04.2018 10:33 7,1 C 97 % 1012,8 hPa 0,0 l/m 14,4 km/h (3 Bft) SW 234 0 min 25 W/m 6,7 C 1,9 C 27,4 km/h (5 Bft)
14.04.2018 10:36 7,1 C 97 % 1012,8 hPa 0,0 l/m 15,4 km/h (3 Bft) W 269 0 min 28 W/m 6,7 C 1,4 C 24,1 km/h (4 Bft)
14.04.2018 10:39 7,1 C 97 % 1012,8 hPa 0,0 l/m 15,6 km/h (3 Bft) W 261 0 min 28 W/m 6,7 C 1,3 C 25,7 km/h (4 Bft)
14.04.2018 10:42 7,2 C 97 % 1012,8 hPa 0,0 l/m 15,0 km/h (3 Bft) SW 221 0 min 19 W/m 6,8 C 1,7 C 30,6 km/h (5 Bft)
14.04.2018 10:45 7,1 C 97 % 1012,8 hPa 0,0 l/m 16,9 km/h (3 Bft) SW 234 0 min 32 W/m 6,7 C 0,8 C 24,1 km/h (4 Bft)
14.04.2018 10:48 7,1 C 97 % 1012,8 hPa 0,0 l/m 17,8 km/h (3 Bft) W-SW 246 0 min 30 W/m 6,7 C 0,4 C 29,0 km/h (5 Bft)
14.04.2018 10:51 7,2 C 97 % 1012,8 hPa 0,0 l/m 16,7 km/h (3 Bft) W-SW 253 0 min 25 W/m 6,8 C 1,0 C 27,4 km/h (5 Bft)
14.04.2018 10:54 7,2 C 97 % 1012,7 hPa 0,0 l/m 20,7 km/h (4 Bft) W-NW 291 0 min 44 W/m 6,8 C -0,6 C 32,2 km/h (5 Bft)
14.04.2018 10:57 7,2 C 97 % 1012,7 hPa 0,0 l/m 23,9 km/h (4 Bft) W 269 0 min 39 W/m 6,8 C -1,6 C 35,4 km/h (5 Bft)
14.04.2018 11:00 7,1 C 97 % 1012,7 hPa 0,0 l/m 19,4 km/h (3 Bft) W-NW 285 0 min 30 W/m 6,7 C -0,2 C 29,0 km/h (5 Bft)
14.04.2018 11:03 7,1 C 97 % 1012,6 hPa 0,0 l/m 16,4 km/h (3 Bft) W-SW 242 0 min 37 W/m 6,7 C 1,0 C 29,0 km/h (5 Bft)
14.04.2018 11:06 7,2 C 97 % 1012,7 hPa 0,0 l/m 20,7 km/h (4 Bft) W-NW 284 0 min 44 W/m 6,8 C -0,6 C 32,2 km/h (5 Bft)
14.04.2018 11:09 7,2 C 97 % 1012,8 hPa 0,0 l/m 19,2 km/h (3 Bft) W 281 0 min 35 W/m 6,8 C -0,0 C 30,6 km/h (5 Bft)
14.04.2018 11:12 7,2 C 97 % 1012,9 hPa 0,0 l/m 16,7 km/h (3 Bft) W 269 0 min 30 W/m 6,8 C 1,0 C 25,7 km/h (4 Bft)
14.04.2018 11:15 7,2 C 97 % 1012,9 hPa 0,0 l/m 13,6 km/h (3 Bft) W-SW 240 0 min 32 W/m 6,8 C 2,4 C 27,4 km/h (5 Bft)
14.04.2018 11:18 7,2 C 97 % 1013,0 hPa 0,0 l/m 17,5 km/h (3 Bft) W 260 0 min 30 W/m 6,8 C 0,6 C 27,4 km/h (5 Bft)
14.04.2018 11:21 7,2 C 97 % 1013,2 hPa 0,0 l/m 13,6 km/h (3 Bft) W 265 0 min 21 W/m 6,8 C 2,4 C 24,1 km/h (4 Bft)
14.04.2018 11:24 7,2 C 98 % 1013,3 hPa 0,0 l/m 12,8 km/h (3 Bft) W 269 0 min 19 W/m 6,9 C 2,8 C 22,5 km/h (4 Bft)
14.04.2018 11:27 7,2 C 97 % 1013,4 hPa 0,0 l/m 14,8 km/h (3 Bft) SW 222 0 min 19 W/m 6,8 C 1,8 C 30,6 km/h (5 Bft)
14.04.2018 11:30 7,2 C 98 % 1013,5 hPa 0,2 l/m 16,2 km/h (3 Bft) W-NW 298 0 min 18 W/m 6,9 C 1,2 C 27,4 km/h (5 Bft)
14.04.2018 11:33 7,3 C 98 % 1013,6 hPa 0,0 l/m 10,6 km/h (2 Bft) W-SW 252 0 min 19 W/m 7,0 C 4,2 C 24,1 km/h (4 Bft)
14.04.2018 11:36 7,3 C 98 % 1013,5 hPa 0,0 l/m 15,1 km/h (3 Bft) SW 231 0 min 19 W/m 7,0 C 1,8 C 25,7 km/h (4 Bft)
14.04.2018 11:39 7,3 C 98 % 1013,6 hPa 0,0 l/m 15,0 km/h (3 Bft) W 271 0 min 21 W/m 7,0 C 1,9 C 27,4 km/h (5 Bft)
14.04.2018 11:42 7,3 C 98 % 1013,5 hPa 0,0 l/m 15,8 km/h (3 Bft) W 268 0 min 30 W/m 7,0 C 1,5 C 25,7 km/h (4 Bft)
14.04.2018 11:45 7,3 C 98 % 1013,5 hPa 0,2 l/m 16,0 km/h (3 Bft) W 265 0 min 33 W/m 7,0 C 1,4 C 25,7 km/h (4 Bft)
14.04.2018 11:48 7,3 C 98 % 1013,5 hPa 0,0 l/m 16,5 km/h (3 Bft) W 264 0 min 37 W/m 7,0 C 1,2 C 25,7 km/h (4 Bft)
14.04.2018 11:51 7,3 C 98 % 1013,3 hPa 0,0 l/m 19,3 km/h (3 Bft) W-NW 286 0 min 62 W/m 7,0 C 0,1 C 29,0 km/h (5 Bft)
14.04.2018 11:54 7,3 C 98 % 1013,2 hPa 0,2 l/m 23,0 km/h (4 Bft) W-SW 242 0 min 56 W/m 7,0 C -1,2 C 30,6 km/h (5 Bft)
14.04.2018 11:57 7,3 C 98 % 1013,2 hPa 0,0 l/m 19,4 km/h (3 Bft) W 279 0 min 69 W/m 7,0 C 0,0 C 29,0 km/h (5 Bft)
14.04.2018 12:00 7,3 C 98 % 1013,1 hPa 0,2 l/m 19,6 km/h (3 Bft) W-NW 290 0 min 84 W/m 7,0 C -0,1 C 30,6 km/h (5 Bft)
14.04.2018 12:03 7,3 C 98 % 1013,1 hPa 0,0 l/m 19,6 km/h (3 Bft) SW 231 0 min 97 W/m 7,0 C -0,1 C 35,4 km/h (5 Bft)
14.04.2018 12:06 7,4 C 98 % 1013,1 hPa 0,0 l/m 21,4 km/h (4 Bft) W-SW 237 0 min 105 W/m 7,1 C -0,6 C 30,6 km/h (5 Bft)
14.04.2018 12:09 7,4 C 98 % 1013,2 hPa 0,0 l/m 19,4 km/h (3 Bft) W-SW 252 0 min 123 W/m 7,1 C 0,1 C 33,8 km/h (5 Bft)
14.04.2018 12:12 7,4 C 98 % 1013,2 hPa 0,2 l/m 18,4 km/h (3 Bft) SW 222 0 min 81 W/m 7,1 C 0,5 C 30,6 km/h (5 Bft)
14.04.2018 12:15 7,4 C 98 % 1013,4 hPa 0,0 l/m 17,0 km/h (3 Bft) SW 222 0 min 67 W/m 7,1 C 1,1 C 29,0 km/h (5 Bft)
14.04.2018 12:18 7,4 C 98 % 1013,5 hPa 0,0 l/m 19,5 km/h (3 Bft) SW 221 0 min 67 W/m 7,1 C 0,1 C 29,0 km/h (5 Bft)
14.04.2018 12:21 7,4 C 98 % 1013,6 hPa 0,2 l/m 18,3 km/h (3 Bft) W 266 0 min 49 W/m 7,1 C 0,6 C 35,4 km/h (5 Bft)
14.04.2018 12:24 7,3 C 98 % 1013,7 hPa 0,0 l/m 20,0 km/h (4 Bft) W-SW 258 0 min 46 W/m 7,0 C -0,2 C 37,0 km/h (5 Bft)
14.04.2018 12:27 7,3 C 98 % 1013,7 hPa 0,0 l/m 17,3 km/h (3 Bft) W-NW 286 0 min 44 W/m 7,0 C 0,8 C 29,0 km/h (5 Bft)
14.04.2018 12:30 7,3 C 98 % 1013,8 hPa 0,0 l/m 18,3 km/h (3 Bft) SW 225 0 min 42 W/m 7,0 C 0,4 C 29,0 km/h (5 Bft)
14.04.2018 12:33 7,3 C 98 % 1013,8 hPa 0,0 l/m 18,9 km/h (3 Bft) SW 234 0 min 37 W/m 7,0 C 0,2 C 32,2 km/h (5 Bft)
14.04.2018 12:36 7,3 C 98 % 1013,9 hPa 0,0 l/m 16,7 km/h (3 Bft) W-SW 238 0 min 39 W/m 7,0 C 1,1 C 32,2 km/h (5 Bft)
14.04.2018 12:39 7,3 C 98 % 1013,9 hPa 0,0 l/m 15,5 km/h (3 Bft) W 274 0 min 35 W/m 7,0 C 1,6 C 30,6 km/h (5 Bft)
14.04.2018 12:42 7,3 C 98 % 1014,0 hPa 0,0 l/m 16,5 km/h (3 Bft) W 259 0 min 33 W/m 7,0 C 1,2 C 30,6 km/h (5 Bft)
14.04.2018 12:45 7,3 C 98 % 1014,0 hPa 0,0 l/m 16,4 km/h (3 Bft) SW 225 0 min 32 W/m 7,0 C 1,2 C 30,6 km/h (5 Bft)
14.04.2018 12:48 7,3 C 98 % 1014,1 hPa 0,0 l/m 17,5 km/h (3 Bft) SW 214 0 min 32 W/m 7,0 C 0,8 C 25,7 km/h (4 Bft)
14.04.2018 12:51 7,4 C 98 % 1014,0 hPa 0,0 l/m 14,4 km/h (3 Bft) W-SW 254 0 min 30 W/m 7,1 C 2,3 C 24,1 km/h (4 Bft)
14.04.2018 12:54 7,3 C 98 % 1014,1 hPa 0,0 l/m 15,4 km/h (3 Bft) W-SW 242 0 min 30 W/m 7,0 C 1,7 C 29,0 km/h (5 Bft)
14.04.2018 12:57 7,3 C 98 % 1014,2 hPa 0,0 l/m 14,5 km/h (3 Bft) W-SW 237 0 min 33 W/m 7,0 C 2,1 C 24,1 km/h (4 Bft)
14.04.2018 13:00 7,3 C 98 % 1014,2 hPa 0,0 l/m 16,8 km/h (3 Bft) SW 225 0 min 35 W/m 7,0 C 1,1 C 30,6 km/h (5 Bft)
14.04.2018 13:03 7,4 C 98 % 1014,2 hPa 0,2 l/m 16,9 km/h (3 Bft) W 273 0 min 30 W/m 7,1 C 1,1 C 27,4 km/h (5 Bft)
14.04.2018 13:06 7,4 C 98 % 1014,3 hPa 0,0 l/m 16,4 km/h (3 Bft) W-SW 247 0 min 32 W/m 7,1 C 1,4 C 25,7 km/h (4 Bft)
14.04.2018 13:09 7,4 C 98 % 1014,3 hPa 0,0 l/m 13,1 km/h (3 Bft) W 259 0 min 37 W/m 7,1 C 2,9 C 20,9 km/h (4 Bft)
14.04.2018 13:12 7,4 C 98 % 1014,3 hPa 0,2 l/m 13,7 km/h (3 Bft) SW 236 0 min 35 W/m 7,1 C 2,6 C 25,7 km/h (4 Bft)
14.04.2018 13:15 7,5 C 98 % 1014,3 hPa 0,0 l/m 14,2 km/h (3 Bft) W 269 0 min 32 W/m 7,2 C 2,5 C 27,4 km/h (5 Bft)
14.04.2018 13:18 7,5 C 98 % 1014,3 hPa 0,0 l/m 15,2 km/h (3 Bft) W-SW 243 0 min 33 W/m 7,2 C 2,0 C 25,7 km/h (4 Bft)
14.04.2018 13:21 7,5 C 98 % 1014,3 hPa 0,0 l/m 16,2 km/h (3 Bft) W 265 0 min 32 W/m 7,2 C 1,6 C 30,6 km/h (5 Bft)
14.04.2018 13:24 7,5 C 98 % 1014,3 hPa 0,0 l/m 16,2 km/h (3 Bft) W 275 0 min 30 W/m 7,2 C 1,6 C 30,6 km/h (5 Bft)
14.04.2018 13:27 7,5 C 98 % 1014,3 hPa 0,0 l/m 18,1 km/h (3 Bft) SW 228 0 min 30 W/m 7,2 C 0,8 C 32,2 km/h (5 Bft)
14.04.2018 13:30 7,5 C 98 % 1014,4 hPa 0,2 l/m 16,1 km/h (3 Bft) S-SW 212 0 min 30 W/m 7,2 C 1,6 C 32,2 km/h (5 Bft)
14.04.2018 13:33 7,5 C 98 % 1014,4 hPa 0,0 l/m 18,2 km/h (3 Bft) W-NW 290 0 min 26 W/m 7,2 C 0,7 C 29,0 km/h (5 Bft)
14.04.2018 13:36 7,5 C 98 % 1014,4 hPa 0,0 l/m 16,4 km/h (3 Bft) SW 235 0 min 25 W/m 7,2 C 1,5 C 25,7 km/h (4 Bft)
14.04.2018 13:39 7,5 C 98 % 1014,4 hPa 0,0 l/m 14,4 km/h (3 Bft) W-SW 246 0 min 23 W/m 7,2 C 2,4 C 24,1 km/h (4 Bft)
14.04.2018 13:42 7,6 C 98 % 1014,5 hPa 0,0 l/m 15,1 km/h (3 Bft) W 275 0 min 23 W/m 7,3 C 2,2 C 25,7 km/h (4 Bft)
14.04.2018 13:45 7,6 C 98 % 1014,6 hPa 0,0 l/m 14,3 km/h (3 Bft) SW 230 0 min 23 W/m 7,3 C 2,6 C 24,1 km/h (4 Bft)
14.04.2018 13:48 7,6 C 98 % 1014,6 hPa 0,0 l/m 16,1 km/h (3 Bft) W-SW 240 0 min 23 W/m 7,3 C 1,7 C 27,4 km/h (5 Bft)
14.04.2018 13:51 7,6 C 98 % 1014,6 hPa 0,0 l/m 18,2 km/h (3 Bft) W 259 0 min 23 W/m 7,3 C 0,9 C 27,4 km/h (5 Bft)
14.04.2018 13:54 7,6 C 98 % 1014,7 hPa 0,0 l/m 16,4 km/h (3 Bft) W 270 0 min 25 W/m 7,3 C 1,6 C 25,7 km/h (4 Bft)
14.04.2018 13:57 7,5 C 98 % 1014,8 hPa 0,0 l/m 16,7 km/h (3 Bft) W-SW 255 0 min 25 W/m 7,2 C 1,3 C 27,4 km/h (5 Bft)
14.04.2018 14:00 7,5 C 98 % 1014,8 hPa 0,2 l/m 14,3 km/h (3 Bft) W-SW 242 0 min 25 W/m 7,2 C 2,4 C 22,5 km/h (4 Bft)
14.04.2018 14:03 7,6 C 98 % 1014,9 hPa 0,0 l/m 15,1 km/h (3 Bft) W 271 0 min 26 W/m 7,3 C 2,2 C 24,1 km/h (4 Bft)
14.04.2018 14:06 7,6 C 98 % 1014,9 hPa 0,0 l/m 13,1 km/h (3 Bft) SW 218 0 min 28 W/m 7,3 C 3,2 C 25,7 km/h (4 Bft)
14.04.2018 14:09 7,6 C 98 % 1015,0 hPa 0,0 l/m 15,5 km/h (3 Bft) SW 229 0 min 28 W/m 7,3 C 2,0 C 24,1 km/h (4 Bft)
14.04.2018 14:12 7,6 C 98 % 1015,0 hPa 0,0 l/m 12,2 km/h (2 Bft) W-SW 252 0 min 30 W/m 7,3 C 3,6 C 19,3 km/h (3 Bft)
14.04.2018 14:15 7,6 C 98 % 1015,0 hPa 0,2 l/m 11,7 km/h (2 Bft) SW 234 0 min 33 W/m 7,3 C 3,9 C 25,7 km/h (4 Bft)
14.04.2018 14:18 7,6 C 98 % 1015,0 hPa 0,0 l/m 13,9 km/h (3 Bft) SW 216 0 min 28 W/m 7,3 C 2,8 C 22,5 km/h (4 Bft)
14.04.2018 14:21 7,6 C 98 % 1015,1 hPa 0,0 l/m 11,8 km/h (2 Bft) W-SW 246 0 min 30 W/m 7,3 C 3,9 C 20,9 km/h (4 Bft)
14.04.2018 14:24 7,6 C 98 % 1015,1 hPa 0,2 l/m 7,9 km/h (2 Bft) W-SW 247 0 min 35 W/m 7,3 C 6,4 C 17,7 km/h (3 Bft)
14.04.2018 14:27 7,6 C 98 % 1015,1 hPa 0,0 l/m 13,9 km/h (3 Bft) SW 227 0 min 33 W/m 7,3 C 2,8 C 27,4 km/h (5 Bft)
14.04.2018 14:30 7,6 C 98 % 1015,1 hPa 0,2 l/m 13,2 km/h (3 Bft) W-SW 241 0 min 30 W/m 7,3 C 3,1 C 24,1 km/h (4 Bft)
14.04.2018 14:33 7,6 C 98 % 1015,1 hPa 0,0 l/m 13,7 km/h (3 Bft) SW 232 0 min 33 W/m 7,3 C 2,9 C 25,7 km/h (4 Bft)
14.04.2018 14:36 7,6 C 98 % 1015,1 hPa 0,2 l/m 10,4 km/h (2 Bft) SW 234 0 min 30 W/m 7,3 C 4,7 C 19,3 km/h (3 Bft)
14.04.2018 14:39 7,6 C 98 % 1015,2 hPa 0,0 l/m 12,8 km/h (3 Bft) W-SW 248 0 min 39 W/m 7,3 C 3,3 C 25,7 km/h (4 Bft)
14.04.2018 14:42 7,7 C 98 % 1015,2 hPa 0,0 l/m 12,0 km/h (2 Bft) SW 232 0 min 39 W/m 7,4 C 3,9 C 20,9 km/h (4 Bft)
14.04.2018 14:45 7,7 C 98 % 1015,2 hPa 0,2 l/m 14,8 km/h (3 Bft) W-SW 240 0 min 44 W/m 7,4 C 2,4 C 27,4 km/h (5 Bft)
14.04.2018 14:48 7,7 C 98 % 1015,2 hPa 0,0 l/m 13,0 km/h (3 Bft) W-SW 258 0 min 39 W/m 7,4 C 3,3 C 22,5 km/h (4 Bft)
14.04.2018 14:51 7,7 C 98 % 1015,2 hPa 0,2 l/m 11,8 km/h (2 Bft) W-SW 248 0 min 42 W/m 7,4 C 4,0 C 22,5 km/h (4 Bft)
14.04.2018 14:54 7,7 C 98 % 1015,2 hPa 0,0 l/m 13,5 km/h (3 Bft) W-SW 255 0 min 35 W/m 7,4 C 3,1 C 19,3 km/h (3 Bft)
14.04.2018 14:57 7,7 C 98 % 1015,3 hPa 0,0 l/m 11,7 km/h (2 Bft) SW 227 0 min 40 W/m 7,4 C 4,0 C 17,7 km/h (3 Bft)
14.04.2018 15:00 7,7 C 98 % 1015,3 hPa 0,0 l/m 9,5 km/h (2 Bft) SW 231 0 min 35 W/m 7,4 C 5,4 C 19,3 km/h (3 Bft)
14.04.2018 15:03 7,6 C 98 % 1015,3 hPa 0,0 l/m 13,1 km/h (3 Bft) SW 235 0 min 39 W/m 7,3 C 3,2 C 19,3 km/h (3 Bft)
14.04.2018 15:06 7,6 C 98 % 1015,3 hPa 0,2 l/m 12,6 km/h (3 Bft) W-SW 239 0 min 37 W/m 7,3 C 3,4 C 22,5 km/h (4 Bft)
14.04.2018 15:09 7,6 C 98 % 1015,4 hPa 0,0 l/m 13,1 km/h (3 Bft) W 269 0 min 39 W/m 7,3 C 3,2 C 22,5 km/h (4 Bft)
14.04.2018 15:12 7,7 C 98 % 1015,4 hPa 0,0 l/m 13,1 km/h (3 Bft) W-SW 252 0 min 35 W/m 7,4 C 3,3 C 20,9 km/h (4 Bft)
14.04.2018 15:15 7,7 C 98 % 1015,5 hPa 0,0 l/m 11,3 km/h (2 Bft) S-SW 213 0 min 37 W/m 7,4 C 4,3 C 17,7 km/h (3 Bft)
14.04.2018 15:18 7,7 C 98 % 1015,5 hPa 0,0 l/m 10,1 km/h (2 Bft) W 263 0 min 35 W/m 7,4 C 5,0 C 19,3 km/h (3 Bft)
14.04.2018 15:21 7,7 C 98 % 1015,5 hPa 0,0 l/m 10,0 km/h (2 Bft) SW 218 0 min 37 W/m 7,4 C 5,1 C 19,3 km/h (3 Bft)
14.04.2018 15:24 7,7 C 98 % 1015,5 hPa 0,2 l/m 13,8 km/h (3 Bft) SW 230 0 min 40 W/m 7,4 C 2,9 C 27,4 km/h (5 Bft)
14.04.2018 15:27 7,7 C 98 % 1015,6 hPa 0,0 l/m 10,8 km/h (2 Bft) SW 219 0 min 40 W/m 7,4 C 4,6 C 17,7 km/h (3 Bft)
14.04.2018 15:30 7,7 C 98 % 1015,6 hPa 0,0 l/m 10,0 km/h (2 Bft) W-SW 246 0 min 42 W/m 7,4 C 5,1 C 19,3 km/h (3 Bft)
14.04.2018 15:33 7,7 C 98 % 1015,7 hPa 0,0 l/m 9,4 km/h (2 Bft) SW 219 0 min 37 W/m 7,4 C 5,4 C 19,3 km/h (3 Bft)
14.04.2018 15:36 7,8 C 98 % 1015,7 hPa 0,0 l/m 8,7 km/h (2 Bft) SW 216 0 min 35 W/m 7,5 C 6,0 C 14,5 km/h (3 Bft)
14.04.2018 15:39 7,8 C 98 % 1015,7 hPa 0,0 l/m 8,3 km/h (2 Bft) S-SW 211 0 min 37 W/m 7,5 C 6,3 C 19,3 km/h (3 Bft)
14.04.2018 15:42 7,8 C 98 % 1015,7 hPa 0,0 l/m 10,0 km/h (2 Bft) SW 234 0 min 33 W/m 7,5 C 5,2 C 20,9 km/h (4 Bft)
14.04.2018 15:45 7,8 C 98 % 1015,8 hPa 0,0 l/m 11,6 km/h (2 Bft) SW 236 0 min 35 W/m 7,5 C 4,2 C 22,5 km/h (4 Bft)
14.04.2018 15:48 7,8 C 98 % 1015,8 hPa 0,0 l/m 11,4 km/h (2 Bft) SW 236 0 min 35 W/m 7,5 C 4,3 C 22,5 km/h (4 Bft)
14.04.2018 15:51 7,8 C 98 % 1015,8 hPa 0,0 l/m 10,1 km/h (2 Bft) W 266 0 min 35 W/m 7,5 C 5,1 C 16,1 km/h (3 Bft)
14.04.2018 15:54 7,8 C 98 % 1015,9 hPa 0,2 l/m 13,8 km/h (3 Bft) W 259 0 min 33 W/m 7,5 C 3,0 C 20,9 km/h (4 Bft)
14.04.2018 15:57 7,8 C 98 % 1015,9 hPa 0,0 l/m 12,3 km/h (2 Bft) W-SW 244 0 min 32 W/m 7,5 C 3,8 C 25,7 km/h (4 Bft)
14.04.2018 16:00 7,8 C 98 % 1015,9 hPa 0,0 l/m 12,2 km/h (2 Bft) SW 232 0 min 32 W/m 7,5 C 3,9 C 25,7 km/h (4 Bft)
14.04.2018 16:03 7,8 C 98 % 1015,9 hPa 0,0 l/m 12,0 km/h (2 Bft) SW 221 0 min 32 W/m 7,5 C 4,0 C 22,5 km/h (4 Bft)
14.04.2018 16:06 7,8 C 98 % 1016,0 hPa 0,0 l/m 12,8 km/h (3 Bft) S-SW 213 0 min 28 W/m 7,5 C 3,6 C 22,5 km/h (4 Bft)
14.04.2018 16:09 7,8 C 98 % 1016,0 hPa 0,0 l/m 10,8 km/h (2 Bft) W-SW 252 0 min 30 W/m 7,5 C 4,7 C 22,5 km/h (4 Bft)
14.04.2018 16:12 7,8 C 98 % 1015,9 hPa 0,0 l/m 11,8 km/h (2 Bft) SW 224 0 min 35 W/m 7,5 C 4,1 C 20,9 km/h (4 Bft)
14.04.2018 16:15 7,8 C 98 % 1015,9 hPa 0,0 l/m 9,4 km/h (2 Bft) W 262 0 min 35 W/m 7,5 C 5,6 C 19,3 km/h (3 Bft)
14.04.2018 16:18 7,8 C 98 % 1015,9 hPa 0,0 l/m 10,1 km/h (2 Bft) W 267 0 min 35 W/m 7,5 C 5,1 C 16,1 km/h (3 Bft)
14.04.2018 16:21 7,8 C 98 % 1016,0 hPa 0,0 l/m 9,6 km/h (2 Bft) SW 235 0 min 32 W/m 7,5 C 5,4 C 17,7 km/h (3 Bft)
14.04.2018 16:24 7,8 C 98 % 1016,1 hPa 0,2 l/m 11,9 km/h (2 Bft) W-SW 245 0 min 28 W/m 7,5 C 4,0 C 20,9 km/h (4 Bft)
14.04.2018 16:27 7,8 C 98 % 1016,0 hPa 0,0 l/m 12,4 km/h (2 Bft) SW 218 0 min 32 W/m 7,5 C 3,8 C 22,5 km/h (4 Bft)
14.04.2018 16:30 7,8 C 98 % 1016,1 hPa 0,0 l/m 13,6 km/h (3 Bft) W 269 0 min 33 W/m 7,5 C 3,1 C 22,5 km/h (4 Bft)
14.04.2018 16:33 7,8 C 98 % 1016,1 hPa 0,0 l/m 14,7 km/h (3 Bft) W 267 0 min 35 W/m 7,5 C 2,6 C 27,4 km/h (5 Bft)
14.04.2018 16:36 7,8 C 98 % 1016,1 hPa 0,0 l/m 11,7 km/h (2 Bft) W-SW 242 0 min 37 W/m 7,5 C 4,1 C 19,3 km/h (3 Bft)
14.04.2018 16:39 7,8 C 98 % 1016,1 hPa 0,0 l/m 15,7 km/h (3 Bft) SW 236 0 min 39 W/m 7,5 C 2,2 C 24,1 km/h (4 Bft)
14.04.2018 16:42 7,7 C 98 % 1016,1 hPa 0,0 l/m 16,0 km/h (3 Bft) W-SW 244 0 min 40 W/m 7,4 C 1,9 C 27,4 km/h (5 Bft)
14.04.2018 16:45 7,7 C 98 % 1016,1 hPa 0,0 l/m 14,1 km/h (3 Bft) W-SW 250 0 min 47 W/m 7,4 C 2,8 C 22,5 km/h (4 Bft)
14.04.2018 16:48 7,7 C 98 % 1016,1 hPa 0,0 l/m 14,6 km/h (3 Bft) W-SW 241 0 min 53 W/m 7,4 C 2,5 C 25,7 km/h (4 Bft)
14.04.2018 16:51 7,8 C 98 % 1016,2 hPa 0,0 l/m 11,1 km/h (2 Bft) W 259 0 min 53 W/m 7,5 C 4,5 C 19,3 km/h (3 Bft)
14.04.2018 16:54 7,8 C 98 % 1016,2 hPa 0,0 l/m 12,6 km/h (3 Bft) SW 235 0 min 47 W/m 7,5 C 3,7 C 19,3 km/h (3 Bft)
14.04.2018 16:57 7,8 C 98 % 1016,2 hPa 0,0 l/m 9,8 km/h (2 Bft) W 272 0 min 49 W/m 7,5 C 5,3 C 17,7 km/h (3 Bft)
14.04.2018 17:00 7,9 C 98 % 1016,2 hPa 0,0 l/m 10,2 km/h (2 Bft) W 263 0 min 60 W/m 7,6 C 5,1 C 16,1 km/h (3 Bft)
14.04.2018 17:03 7,9 C 98 % 1016,2 hPa 0,0 l/m 12,2 km/h (2 Bft) S-SW 207 0 min 65 W/m 7,6 C 4,0 C 19,3 km/h (3 Bft)
14.04.2018 17:06 7,9 C 98 % 1016,2 hPa 0,0 l/m 12,8 km/h (3 Bft) W-SW 246 0 min 63 W/m 7,6 C 3,7 C 22,5 km/h (4 Bft)
14.04.2018 17:09 8,0 C 98 % 1016,2 hPa 0,0 l/m 9,9 km/h (2 Bft) W 263 0 min 60 W/m 7,7 C 5,4 C 19,3 km/h (3 Bft)
14.04.2018 17:12 8,1 C 98 % 1016,2 hPa 0,0 l/m 13,6 km/h (3 Bft) W 281 0 min 56 W/m 7,8 C 3,5 C 25,7 km/h (4 Bft)
14.04.2018 17:15 8,1 C 98 % 1016,2 hPa 0,0 l/m 12,2 km/h (2 Bft) SW 221 0 min 60 W/m 7,8 C 4,2 C 24,1 km/h (4 Bft)
14.04.2018 17:18 8,1 C 98 % 1016,1 hPa 0,0 l/m 9,3 km/h (2 Bft) S 190 0 min 65 W/m 7,8 C 5,9 C 14,5 km/h (3 Bft)
14.04.2018 17:21 8,2 C 98 % 1016,2 hPa 0,0 l/m 9,0 km/h (2 Bft) W-SW 245 0 min 60 W/m 7,9 C 6,3 C 16,1 km/h (3 Bft)
14.04.2018 17:24 8,2 C 98 % 1016,2 hPa 0,0 l/m 11,7 km/h (2 Bft) W 265 0 min 54 W/m 7,9 C 4,6 C 22,5 km/h (4 Bft)
14.04.2018 17:27 8,2 C 98 % 1016,2 hPa 0,0 l/m 13,4 km/h (3 Bft) W-SW 252 0 min 46 W/m 7,9 C 3,7 C 22,5 km/h (4 Bft)
14.04.2018 17:30 8,2 C 98 % 1016,1 hPa 0,0 l/m 10,7 km/h (2 Bft) W-SW 242 0 min 51 W/m 7,9 C 5,2 C 17,7 km/h (3 Bft)
14.04.2018 17:33 8,2 C 98 % 1016,2 hPa 0,0 l/m 11,2 km/h (2 Bft) W-SW 242 0 min 56 W/m 7,9 C 4,9 C 17,7 km/h (3 Bft)
14.04.2018 17:36 8,2 C 97 % 1016,2 hPa 0,0 l/m 13,3 km/h (3 Bft) SW 219 0 min 62 W/m 7,8 C 3,8 C 25,7 km/h (4 Bft)
14.04.2018 17:39 8,2 C 97 % 1016,2 hPa 0,0 l/m 12,2 km/h (2 Bft) W 281 0 min 63 W/m 7,8 C 4,3 C 20,9 km/h (4 Bft)
14.04.2018 17:42 8,2 C 98 % 1016,3 hPa 0,0 l/m 15,8 km/h (3 Bft) SW 231 0 min 56 W/m 7,9 C 2,6 C 22,5 km/h (4 Bft)
14.04.2018 17:45 8,2 C 98 % 1016,2 hPa 0,0 l/m 15,1 km/h (3 Bft) W-SW 249 0 min 53 W/m 7,9 C 2,9 C 22,5 km/h (4 Bft)
14.04.2018 17:48 8,2 C 97 % 1016,2 hPa 0,0 l/m 15,5 km/h (3 Bft) W-SW 251 0 min 49 W/m 7,8 C 2,7 C 29,0 km/h (5 Bft)
14.04.2018 17:51 8,2 C 97 % 1016,3 hPa 0,0 l/m 16,7 km/h (3 Bft) SW 218 0 min 49 W/m 7,8 C 2,2 C 25,7 km/h (4 Bft)
14.04.2018 17:54 8,2 C 97 % 1016,3 hPa 0,0 l/m 16,2 km/h (3 Bft) W 269 0 min 47 W/m 7,8 C 2,4 C 22,5 km/h (4 Bft)
14.04.2018 17:57 8,2 C 97 % 1016,3 hPa 0,0 l/m 13,6 km/h (3 Bft) W 279 0 min 47 W/m 7,8 C 3,6 C 25,7 km/h (4 Bft)
14.04.2018 18:00 8,2 C 97 % 1016,4 hPa 0,0 l/m 13,7 km/h (3 Bft) W-SW 258 0 min 44 W/m 7,8 C 3,6 C 24,1 km/h (4 Bft)
14.04.2018 18:03 8,2 C 97 % 1016,4 hPa 0,0 l/m 12,6 km/h (3 Bft) W 262 0 min 40 W/m 7,8 C 4,1 C 20,9 km/h (4 Bft)
14.04.2018 18:06 8,2 C 97 % 1016,4 hPa 0,0 l/m 11,6 km/h (2 Bft) W 273 0 min 39 W/m 7,8 C 4,7 C 20,9 km/h (4 Bft)
14.04.2018 18:09 8,3 C 97 % 1016,4 hPa 0,0 l/m 12,9 km/h (3 Bft) W-SW 257 0 min 37 W/m 7,9 C 4,1 C 20,9 km/h (4 Bft)
14.04.2018 18:12 8,3 C 97 % 1016,5 hPa 0,0 l/m 12,4 km/h (2 Bft) SW 234 0 min 35 W/m 7,9 C 4,3 C 19,3 km/h (3 Bft)
14.04.2018 18:15 8,3 C 97 % 1016,4 hPa 0,0 l/m 8,6 km/h (2 Bft) W 263 0 min 32 W/m 7,9 C 6,6 C 19,3 km/h (3 Bft)
14.04.2018 18:18 8,3 C 97 % 1016,5 hPa 0,0 l/m 10,8 km/h (2 Bft) W-SW 252 0 min 30 W/m 7,9 C 5,2 C 22,5 km/h (4 Bft)
14.04.2018 18:21 8,3 C 97 % 1016,4 hPa 0,0 l/m 13,0 km/h (3 Bft) W-SW 251 0 min 35 W/m 7,9 C 4,0 C 22,5 km/h (4 Bft)
14.04.2018 18:24 8,3 C 97 % 1016,4 hPa 0,0 l/m 9,2 km/h (2 Bft) W-NW 284 0 min 39 W/m 7,9 C 6,2 C 17,7 km/h (3 Bft)
14.04.2018 18:27 8,4 C 97 % 1016,4 hPa 0,0 l/m 13,6 km/h (3 Bft) SW 234 0 min 47 W/m 8,0 C 3,9 C 20,9 km/h (4 Bft)
14.04.2018 18:30 8,4 C 97 % 1016,4 hPa 0,0 l/m 11,6 km/h (2 Bft) W-SW 238 0 min 39 W/m 8,0 C 4,9 C 22,5 km/h (4 Bft)
14.04.2018 18:33 8,4 C 97 % 1016,4 hPa 0,0 l/m 10,9 km/h (2 Bft) W 273 0 min 33 W/m 8,0 C 5,3 C 20,9 km/h (4 Bft)
14.04.2018 18:36 8,4 C 97 % 1016,4 hPa 0,0 l/m 9,9 km/h (2 Bft) SW 234 0 min 28 W/m 8,0 C 5,9 C 20,9 km/h (4 Bft)
14.04.2018 18:39 8,4 C 96 % 1016,4 hPa 0,0 l/m 10,4 km/h (2 Bft) W 269 0 min 28 W/m 7,8 C 5,6 C 19,3 km/h (3 Bft)
14.04.2018 18:42 8,4 C 96 % 1016,4 hPa 0,0 l/m 10,2 km/h (2 Bft) W 268 0 min 28 W/m 7,8 C 5,7 C 20,9 km/h (4 Bft)
14.04.2018 18:45 8,4 C 96 % 1016,4 hPa 0,0 l/m 10,2 km/h (2 Bft) W 279 0 min 28 W/m 7,8 C 5,7 C 19,3 km/h (3 Bft)
14.04.2018 18:48 8,4 C 96 % 1016,4 hPa 0,0 l/m 8,6 km/h (2 Bft) W 259 0 min 26 W/m 7,8 C 6,7 C 17,7 km/h (3 Bft)
14.04.2018 18:51 8,4 C 96 % 1016,4 hPa 0,0 l/m 9,5 km/h (2 Bft) W 274 0 min 28 W/m 7,8 C 6,1 C 17,7 km/h (3 Bft)
14.04.2018 18:54 8,4 C 96 % 1016,4 hPa 0,0 l/m 8,5 km/h (2 Bft) W-SW 248 0 min 32 W/m 7,8 C 6,8 C 14,5 km/h (3 Bft)
14.04.2018 18:57 8,4 C 96 % 1016,4 hPa 0,0 l/m 5,8 km/h (2 Bft) W 268 0 min 39 W/m 7,8 C 8,4 C 11,3 km/h (2 Bft)
14.04.2018 19:00 8,4 C 96 % 1016,4 hPa 0,0 l/m 6,4 km/h (2 Bft) W 268 0 min 35 W/m 7,8 C 8,4 C 11,3 km/h (2 Bft)
14.04.2018 19:03 8,4 C 96 % 1016,4 hPa 0,0 l/m 7,1 km/h (2 Bft) W 281 0 min 35 W/m 7,8 C 7,9 C 14,5 km/h (3 Bft)
14.04.2018 19:06 8,4 C 96 % 1016,3 hPa 0,0 l/m 7,6 km/h (2 Bft) W-SW 250 0 min 37 W/m 7,8 C 7,5 C 14,5 km/h (3 Bft)
14.04.2018 19:09 8,4 C 96 % 1016,3 hPa 0,0 l/m 6,6 km/h (2 Bft) W-SW 244 0 min 33 W/m 7,8 C 8,3 C 11,3 km/h (2 Bft)
14.04.2018 19:12 8,3 C 96 % 1016,3 hPa 0,0 l/m 6,5 km/h (2 Bft) W-SW 248 0 min 32 W/m 7,7 C 8,2 C 9,7 km/h (2 Bft)
14.04.2018 19:15 8,3 C 96 % 1016,3 hPa 0,0 l/m 7,7 km/h (2 Bft) SW 222 0 min 32 W/m 7,7 C 7,3 C 12,9 km/h (3 Bft)
14.04.2018 19:18 8,3 C 96 % 1016,3 hPa 0,0 l/m 8,1 km/h (2 Bft) W-SW 242 0 min 28 W/m 7,7 C 7,0 C 12,9 km/h (3 Bft)
14.04.2018 19:21 8,3 C 96 % 1016,3 hPa 0,0 l/m 5,6 km/h (2 Bft) W-SW 258 0 min 26 W/m 7,7 C 8,3 C 11,3 km/h (2 Bft)
14.04.2018 19:24 8,4 C 96 % 1016,3 hPa 0,0 l/m 5,3 km/h (1 Bft) W-SW 244 0 min 25 W/m 7,8 C 8,4 C 11,3 km/h (2 Bft)
14.04.2018 19:27 8,4 C 96 % 1016,3 hPa 0,0 l/m 5,6 km/h (2 Bft) W-SW 245 0 min 25 W/m 7,8 C 8,4 C 11,3 km/h (2 Bft)
14.04.2018 19:30 8,4 C 95 % 1016,3 hPa 0,0 l/m 5,3 km/h (1 Bft) W 269 0 min 21 W/m 7,6 C 8,4 C 9,7 km/h (2 Bft)
14.04.2018 19:33 8,3 C 95 % 1016,3 hPa 0,0 l/m 6,0 km/h (2 Bft) W 279 0 min 21 W/m 7,5 C 8,3 C 12,9 km/h (3 Bft)
14.04.2018 19:36 8,3 C 95 % 1016,3 hPa 0,0 l/m 5,8 km/h (2 Bft) SW 236 0 min 14 W/m 7,5 C 8,3 C 11,3 km/h (2 Bft)
14.04.2018 19:39 8,2 C 95 % 1016,2 hPa 0,0 l/m 7,5 km/h (2 Bft) W 271 0 min 12 W/m 7,4 C 7,3 C 14,5 km/h (3 Bft)
14.04.2018 19:42 8,2 C 95 % 1016,2 hPa 0,0 l/m 6,2 km/h (2 Bft) W-SW 241 0 min 9 W/m 7,4 C 8,2 C 12,9 km/h (3 Bft)
14.04.2018 19:45 8,2 C 95 % 1016,3 hPa 0,0 l/m 7,6 km/h (2 Bft) W-SW 253 0 min 7 W/m 7,4 C 7,3 C 12,9 km/h (3 Bft)
14.04.2018 19:48 8,2 C 95 % 1016,3 hPa 0,0 l/m 4,8 km/h (1 Bft) W 272 0 min 7 W/m 7,4 C 8,2 C 9,7 km/h (2 Bft)
14.04.2018 19:51 8,2 C 95 % 1016,4 hPa 0,0 l/m 5,6 km/h (2 Bft) W-SW 249 0 min 7 W/m 7,4 C 8,2 C 12,9 km/h (3 Bft)
14.04.2018 19:54 8,2 C 95 % 1016,3 hPa 0,0 l/m 4,9 km/h (1 Bft) W-SW 245 0 min 7 W/m 7,4 C 8,2 C 9,7 km/h (2 Bft)
14.04.2018 19:57 8,2 C 95 % 1016,3 hPa 0,0 l/m 6,3 km/h (2 Bft) W-SW 248 0 min 7 W/m 7,4 C 8,2 C 9,7 km/h (2 Bft)
14.04.2018 20:00 8,2 C 95 % 1016,3 hPa 0,0 l/m 5,8 km/h (2 Bft) W-SW 242 0 min 5 W/m 7,4 C 8,2 C 12,9 km/h (3 Bft)
14.04.2018 20:03 8,2 C 95 % 1016,3 hPa 0,0 l/m 3,6 km/h (1 Bft) SW 236 0 min 7 W/m 7,4 C 8,2 C 6,4 km/h (2 Bft)
14.04.2018 20:06 8,2 C 95 % 1016,4 hPa 0,0 l/m 5,1 km/h (1 Bft) W-NW 284 0 min 7 W/m 7,4 C 8,2 C 12,9 km/h (3 Bft)
14.04.2018 20:09 8,2 C 95 % 1016,4 hPa 0,0 l/m 6,0 km/h (2 Bft) W-SW 240 0 min 5 W/m 7,4 C 8,2 C 11,3 km/h (2 Bft)
14.04.2018 20:12 8,2 C 95 % 1016,4 hPa 0,0 l/m 5,1 km/h (1 Bft) W-SW 238 0 min 5 W/m 7,4 C 8,2 C 8,0 km/h (2 Bft)
14.04.2018 20:15 8,1 C 95 % 1016,5 hPa 0,0 l/m 4,9 km/h (1 Bft) W 277 0 min 0 W/m 7,3 C 8,1 C 12,9 km/h (3 Bft)
14.04.2018 20:18 8,1 C 95 % 1016,5 hPa 0,0 l/m 6,4 km/h (2 Bft) SW 227 0 min 0 W/m 7,3 C 8,1 C 12,9 km/h (3 Bft)
14.04.2018 20:21 8,1 C 95 % 1016,5 hPa 0,0 l/m 5,9 km/h (2 Bft) W-SW 248 0 min 0 W/m 7,3 C 8,1 C 11,3 km/h (2 Bft)
14.04.2018 20:24 8,1 C 95 % 1016,5 hPa 0,0 l/m 7,1 km/h (2 Bft) W-SW 237 0 min 0 W/m 7,3 C 7,6 C 14,5 km/h (3 Bft)
14.04.2018 20:27 8,0 C 95 % 1016,6 hPa 0,0 l/m 5,6 km/h (2 Bft) SW 217 0 min 0 W/m 7,2 C 8,0 C 11,3 km/h (2 Bft)
14.04.2018 20:30 8,0 C 95 % 1016,6 hPa 0,0 l/m 5,4 km/h (2 Bft) W 264 0 min 0 W/m 7,2 C 8,0 C 9,7 km/h (2 Bft)
14.04.2018 20:33 8,0 C 95 % 1016,6 hPa 0,0 l/m 5,2 km/h (1 Bft) W 271 0 min 0 W/m 7,2 C 8,0 C 11,3 km/h (2 Bft)
14.04.2018 20:36 8,0 C 95 % 1016,6 hPa 0,0 l/m 4,8 km/h (1 Bft) SW 225 0 min 0 W/m 7,2 C 8,0 C 9,7 km/h (2 Bft)
14.04.2018 20:39 8,0 C 95 % 1016,6 hPa 0,0 l/m 4,1 km/h (1 Bft) W-NW 282 0 min 0 W/m 7,2 C 8,0 C 8,0 km/h (2 Bft)
14.04.2018 20:42 8,0 C 95 % 1016,7 hPa 0,0 l/m 4,2 km/h (1 Bft) SW 230 0 min 0 W/m 7,2 C 8,0 C 9,7 km/h (2 Bft)
14.04.2018 20:45 8,0 C 95 % 1016,6 hPa 0,0 l/m 4,2 km/h (1 Bft) W-SW 253 0 min 0 W/m 7,2 C 8,0 C 9,7 km/h (2 Bft)
14.04.2018 20:48 8,0 C 95 % 1016,6 hPa 0,0 l/m 3,9 km/h (1 Bft) W-SW 241 0 min 0 W/m 7,2 C 8,0 C 6,4 km/h (2 Bft)
14.04.2018 20:51 8,0 C 95 % 1016,6 hPa 0,0 l/m 5,7 km/h (2 Bft) W 278 0 min 0 W/m 7,2 C 8,0 C 11,3 km/h (2 Bft)
14.04.2018 20:54 8,0 C 95 % 1016,6 hPa 0,0 l/m 6,4 km/h (2 Bft) W-SW 255 0 min 0 W/m 7,2 C 8,0 C 12,9 km/h (3 Bft)
14.04.2018 20:57 8,0 C 95 % 1016,6 hPa 0,0 l/m 4,2 km/h (1 Bft) W-SW 254 0 min 0 W/m 7,2 C 8,0 C 8,0 km/h (2 Bft)
14.04.2018 21:00 8,0 C 95 % 1016,6 hPa 0,0 l/m 6,5 km/h (2 Bft) W 265 0 min 0 W/m 7,2 C 7,9 C 11,3 km/h (2 Bft)
14.04.2018 21:03 8,0 C 95 % 1016,6 hPa 0,0 l/m 6,1 km/h (2 Bft) SW 233 0 min 0 W/m 7,2 C 8,0 C 11,3 km/h (2 Bft)
14.04.2018 21:06 8,0 C 95 % 1016,6 hPa 0,0 l/m 7,4 km/h (2 Bft) W-SW 245 0 min 0 W/m 7,2 C 7,2 C 14,5 km/h (3 Bft)
14.04.2018 21:09 7,9 C 95 % 1016,7 hPa 0,0 l/m 7,1 km/h (2 Bft) W-SW 241 0 min 0 W/m 7,1 C 7,3 C 12,9 km/h (3 Bft)
14.04.2018 21:12 8,0 C 95 % 1016,8 hPa 0,0 l/m 6,6 km/h (2 Bft) SW 228 0 min 0 W/m 7,2 C 7,9 C 11,3 km/h (2 Bft)
14.04.2018 21:15 8,0 C 95 % 1016,7 hPa 0,0 l/m 8,0 km/h (2 Bft) W 270 0 min 0 W/m 7,2 C 6,8 C 12,9 km/h (3 Bft)
14.04.2018 21:18 8,0 C 95 % 1016,7 hPa 0,0 l/m 7,4 km/h (2 Bft) W 281 0 min 0 W/m 7,2 C 7,2 C 12,9 km/h (3 Bft)
14.04.2018 21:21 8,0 C 96 % 1016,8 hPa 0,0 l/m 6,8 km/h (2 Bft) W-SW 239 0 min 0 W/m 7,4 C 7,7 C 11,3 km/h (2 Bft)
14.04.2018 21:24 8,0 C 96 % 1016,8 hPa 0,0 l/m 4,8 km/h (1 Bft) SW 229 0 min 0 W/m 7,4 C 8,0 C 8,0 km/h (2 Bft)
14.04.2018 21:27 8,1 C 96 % 1016,8 hPa 0,0 l/m 4,3 km/h (1 Bft) SW 229 0 min 0 W/m 7,5 C 8,1 C 6,4 km/h (2 Bft)
14.04.2018 21:30 8,1 C 96 % 1016,9 hPa 0,0 l/m 5,2 km/h (1 Bft) SW 225 0 min 0 W/m 7,5 C 8,1 C 8,0 km/h (2 Bft)
14.04.2018 21:33 8,1 C 96 % 1016,9 hPa 0,0 l/m 5,8 km/h (2 Bft) SW 228 0 min 0 W/m 7,5 C 8,1 C 8,0 km/h (2 Bft)
14.04.2018 21:36 8,1 C 96 % 1016,9 hPa 0,0 l/m 4,5 km/h (1 Bft) SW 225 0 min 0 W/m 7,5 C 8,1 C 8,0 km/h (2 Bft)
14.04.2018 21:39 8,1 C 96 % 1016,9 hPa 0,0 l/m 6,8 km/h (2 Bft) SW 221 0 min 0 W/m 7,5 C 7,8 C 9,7 km/h (2 Bft)
14.04.2018 21:42 8,1 C 96 % 1016,9 hPa 0,0 l/m 4,9 km/h (1 Bft) S-SW 207 0 min 0 W/m 7,5 C 8,1 C 8,0 km/h (2 Bft)
14.04.2018 21:45 8,1 C 96 % 1016,9 hPa 0,0 l/m 5,7 km/h (2 Bft) SW 232 0 min 0 W/m 7,5 C 8,1 C 11,3 km/h (2 Bft)
14.04.2018 21:48 8,1 C 96 % 1016,9 hPa 0,0 l/m 4,7 km/h (1 Bft) SW 226 0 min 0 W/m 7,5 C 8,1 C 8,0 km/h (2 Bft)
14.04.2018 21:51 8,1 C 96 % 1016,9 hPa 0,0 l/m 2,9 km/h (1 Bft) SW 227 0 min 0 W/m 7,5 C 8,1 C 8,0 km/h (2 Bft)
14.04.2018 21:54 8,1 C 96 % 1016,9 hPa 0,0 l/m 3,2 km/h (1 Bft) SW 227 0 min 0 W/m 7,5 C 8,1 C 6,4 km/h (2 Bft)
14.04.2018 21:57 8,1 C 96 % 1016,9 hPa 0,0 l/m 2,5 km/h (1 Bft) SW 227 0 min 0 W/m 7,5 C 8,1 C 4,8 km/h (1 Bft)
14.04.2018 22:00 8,1 C 96 % 1016,8 hPa 0,0 l/m 4,1 km/h (1 Bft) SW 227 0 min 0 W/m 7,5 C 8,1 C 6,4 km/h (2 Bft)
14.04.2018 22:03 8,1 C 96 % 1016,9 hPa 0,0 l/m 5,0 km/h (1 Bft) SW 227 0 min 0 W/m 7,5 C 8,1 C 8,0 km/h (2 Bft)
14.04.2018 22:06 8,1 C 96 % 1016,9 hPa 0,0 l/m 6,6 km/h (2 Bft) S-SW 209 0 min 0 W/m 7,5 C 8,0 C 9,7 km/h (2 Bft)
14.04.2018 22:09 8,1 C 96 % 1016,9 hPa 0,0 l/m 5,1 km/h (1 Bft) S-SW 209 0 min 0 W/m 7,5 C 8,1 C 8,0 km/h (2 Bft)
14.04.2018 22:12 8,1 C 96 % 1016,9 hPa 0,0 l/m 5,5 km/h (2 Bft) S-SW 212 0 min 0 W/m 7,5 C 8,1 C 8,0 km/h (2 Bft)
14.04.2018 22:15 8,1 C 96 % 1016,9 hPa 0,0 l/m 7,7 km/h (2 Bft) S-SW 213 0 min 0 W/m 7,5 C 7,1 C 11,3 km/h (2 Bft)
14.04.2018 22:18 8,1 C 96 % 1016,8 hPa 0,0 l/m 4,7 km/h (1 Bft) S-SW 209 0 min 0 W/m 7,5 C 8,1 C 8,0 km/h (2 Bft)
14.04.2018 22:21 8,1 C 96 % 1016,8 hPa 0,0 l/m 6,8 km/h (2 Bft) SW 217 0 min 0 W/m 7,5 C 7,8 C 14,5 km/h (3 Bft)
14.04.2018 22:24 8,1 C 96 % 1016,8 hPa 0,0 l/m 6,7 km/h (2 Bft) S-SW 207 0 min 0 W/m 7,5 C 7,9 C 9,7 km/h (2 Bft)
14.04.2018 22:27 8,1 C 96 % 1016,8 hPa 0,0 l/m 6,8 km/h (2 Bft) SW 217 0 min 0 W/m 7,5 C 7,8 C 11,3 km/h (2 Bft)
14.04.2018 22:30 8,1 C 96 % 1016,8 hPa 0,0 l/m 7,2 km/h (2 Bft) S-SW 213 0 min 0 W/m 7,5 C 7,5 C 11,3 km/h (2 Bft)
14.04.2018 22:33 8,1 C 96 % 1016,8 hPa 0,0 l/m 6,0 km/h (2 Bft) SW 225 0 min 0 W/m 7,5 C 8,1 C 9,7 km/h (2 Bft)
14.04.2018 22:36 8,1 C 96 % 1016,8 hPa 0,0 l/m 6,8 km/h (2 Bft) SW 215 0 min 0 W/m 7,5 C 7,8 C 9,7 km/h (2 Bft)
14.04.2018 22:39 8,0 C 96 % 1016,8 hPa 0,0 l/m 6,0 km/h (2 Bft) SW 218 0 min 0 W/m 7,4 C 8,0 C 9,7 km/h (2 Bft)
14.04.2018 22:42 8,0 C 96 % 1016,8 hPa 0,0 l/m 5,6 km/h (2 Bft) W-SW 252 0 min 0 W/m 7,4 C 8,0 C 12,9 km/h (3 Bft)
14.04.2018 22:45 8,0 C 96 % 1016,7 hPa 0,0 l/m 6,6 km/h (2 Bft) SW 230 0 min 0 W/m 7,4 C 7,9 C 12,9 km/h (3 Bft)
14.04.2018 22:48 8,0 C 96 % 1016,7 hPa 0,0 l/m 6,6 km/h (2 Bft) SW 232 0 min 0 W/m 7,4 C 7,9 C 11,3 km/h (2 Bft)
14.04.2018 22:51 8,0 C 96 % 1016,7 hPa 0,0 l/m 7,3 km/h (2 Bft) SW 223 0 min 0 W/m 7,4 C 7,3 C 14,5 km/h (3 Bft)
14.04.2018 22:54 8,1 C 96 % 1016,7 hPa 0,0 l/m 6,6 km/h (2 Bft) W-SW 238 0 min 0 W/m 7,5 C 8,0 C 12,9 km/h (3 Bft)
14.04.2018 22:57 8,1 C 96 % 1016,8 hPa 0,0 l/m 5,1 km/h (1 Bft) SW 218 0 min 0 W/m 7,5 C 8,1 C 8,0 km/h (2 Bft)
14.04.2018 23:00 8,1 C 96 % 1016,8 hPa 0,0 l/m 5,5 km/h (2 Bft) S-SW 210 0 min 0 W/m 7,5 C 8,1 C 9,7 km/h (2 Bft)
14.04.2018 23:03 8,1 C 96 % 1016,7 hPa 0,0 l/m 5,5 km/h (2 Bft) SW 232 0 min 0 W/m 7,5 C 8,1 C 9,7 km/h (2 Bft)
14.04.2018 23:06 8,1 C 96 % 1016,6 hPa 0,0 l/m 5,3 km/h (1 Bft) SW 227 0 min 0 W/m 7,5 C 8,1 C 8,0 km/h (2 Bft)
14.04.2018 23:09 8,1 C 96 % 1016,6 hPa 0,0 l/m 5,2 km/h (1 Bft) W-SW 241 0 min 0 W/m 7,5 C 8,1 C 9,7 km/h (2 Bft)
14.04.2018 23:12 8,1 C 96 % 1016,6 hPa 0,0 l/m 5,2 km/h (1 Bft) SW 227 0 min 0 W/m 7,5 C 8,1 C 9,7 km/h (2 Bft)
14.04.2018 23:15 8,1 C 96 % 1016,6 hPa 0,0 l/m 4,6 km/h (1 Bft) SW 233 0 min 0 W/m 7,5 C 8,1 C 8,0 km/h (2 Bft)
14.04.2018 23:18 8,1 C 96 % 1016,6 hPa 0,0 l/m 5,7 km/h (2 Bft) SW 236 0 min 0 W/m 7,5 C 8,1 C 9,7 km/h (2 Bft)
14.04.2018 23:21 8,1 C 96 % 1016,6 hPa 0,0 l/m 5,0 km/h (1 Bft) SW 225 0 min 0 W/m 7,5 C 8,1 C 8,0 km/h (2 Bft)
14.04.2018 23:24 8,1 C 96 % 1016,6 hPa 0,0 l/m 4,1 km/h (1 Bft) SW 219 0 min 0 W/m 7,5 C 8,1 C 6,4 km/h (2 Bft)
14.04.2018 23:27 8,1 C 96 % 1016,5 hPa 0,0 l/m 3,6 km/h (1 Bft) SW 227 0 min 0 W/m 7,5 C 8,1 C 8,0 km/h (2 Bft)
14.04.2018 23:30 8,1 C 96 % 1016,6 hPa 0,0 l/m 3,0 km/h (1 Bft) SW 227 0 min 0 W/m 7,5 C 8,1 C 6,4 km/h (2 Bft)
14.04.2018 23:33 8,1 C 96 % 1016,6 hPa 0,0 l/m 2,7 km/h (1 Bft) SW 227 0 min 0 W/m 7,5 C 8,1 C 4,8 km/h (1 Bft)
14.04.2018 23:36 8,1 C 96 % 1016,6 hPa 0,0 l/m 4,0 km/h (1 Bft) SW 227 0 min 0 W/m 7,5 C 8,1 C 6,4 km/h (2 Bft)
14.04.2018 23:39 8,1 C 96 % 1016,5 hPa 0,0 l/m 4,8 km/h (1 Bft) SW 236 0 min 0 W/m 7,5 C 8,1 C 8,0 km/h (2 Bft)
14.04.2018 23:42 8,1 C 96 % 1016,6 hPa 0,0 l/m 4,3 km/h (1 Bft) SW 236 0 min 0 W/m 7,5 C 8,1 C 6,4 km/h (2 Bft)
14.04.2018 23:45 8,1 C 96 % 1016,6 hPa 0,0 l/m 4,2 km/h (1 Bft) SW 236 0 min 0 W/m 7,5 C 8,1 C 6,4 km/h (2 Bft)
14.04.2018 23:48 8,1 C 96 % 1016,6 hPa 0,0 l/m 3,9 km/h (1 Bft) SW 229 0 min 0 W/m 7,5 C 8,1 C 6,4 km/h (2 Bft)
14.04.2018 23:51 8,1 C 96 % 1016,5 hPa 0,0 l/m 2,5 km/h (1 Bft) SW 229 0 min 0 W/m 7,5 C 8,1 C 3,2 km/h (1 Bft)
14.04.2018 23:54 8,1 C 96 % 1016,5 hPa 0,0 l/m 2,5 km/h (1 Bft) SW 229 0 min 0 W/m 7,5 C 8,1 C 4,8 km/h (1 Bft)
14.04.2018 23:57 8,1 C 96 % 1016,5 hPa 0,0 l/m 2,8 km/h (1 Bft) SW 229 0 min 0 W/m 7,5 C 8,1 C 4,8 km/h (1 Bft)
_ Min-Zeit 07:39 19:30 00:27 - 00:03 - - - - 07:39 10:57 00:03
Minimum _ 6,9 C 95 % 1008,5 hPa - 0,3 km/h (0 Bft) - - - - 6,5 C -1,6 C 3,2 km/h (1 Bft)
_ Max-Zeit 18:27 08:09 21:30 06:33 10:57 - - 00:00 12:09 18:27 19:00 12:24
Maximum _ 8,4 C 98 % 1016,9 hPa 0,2 l/m 23,9 km/h
W (4 Bft)
- - 0 min 123 W/m 8,0 C 8,4 C 37,0 km/h
W-SW (5 Bft)
Durchschnitt _ 7,6 C 97 % 1013,2 hPa #4,6 l/m 11,0 km/h (2 Bft) W - #0 min. 30 W/m 7,1 C 4,3 C 19,3 km/h (3 Bft)
2018 Cux-Wetter.de -Die Nutzung der Wetterdaten nur mit ausdrcklicher Genehmigung